Wetterdaten: Sonntag, 19.04.2015
Datum Zeit Temp. Aussen +5cm Feuchte Auss Luftdruck Regen Sonnenschein Regendauer UV Solar Windben
19.04.2015 00:00 6,7 C 5,6 C 71 % 1024,4 hPa 0,0 l/m 0 min 0 min 0,0 UV-I 0 W/m 16,7 km/h (3 Bft)
19.04.2015 00:02 6,7 C 5,6 C 71 % 1024,4 hPa 0,0 l/m 0 min 0 min 0,0 UV-I 0 W/m 12,6 km/h (3 Bft)
19.04.2015 00:06 6,8 C 6,1 C 72 % 1024,4 hPa 0,0 l/m 0 min 0 min 0,0 UV-I 0 W/m 10,5 km/h (2 Bft)
19.04.2015 00:08 6,9 C 6,1 C 72 % 1024,3 hPa 0,0 l/m 0 min 0 min 0,0 UV-I 0 W/m 8,4 km/h (2 Bft)
19.04.2015 00:10 6,9 C 6,1 C 72 % 1024,4 hPa 0,0 l/m 0 min 0 min 0,0 UV-I 0 W/m 8,4 km/h (2 Bft)
19.04.2015 00:12 7,0 C 6,1 C 72 % 1024,3 hPa 0,0 l/m 0 min 0 min 0,0 UV-I 0 W/m 10,5 km/h (2 Bft)
19.04.2015 00:14 7,1 C 6,1 C 72 % 1024,3 hPa 0,0 l/m 0 min 0 min 0,0 UV-I 0 W/m 6,3 km/h (2 Bft)
19.04.2015 00:16 7,1 C 6,1 C 72 % 1024,3 hPa 0,0 l/m 0 min 0 min 0,0 UV-I 0 W/m 8,4 km/h (2 Bft)
19.04.2015 00:18 7,1 C 6,1 C 72 % 1024,3 hPa 0,0 l/m 0 min 0 min 0,0 UV-I 0 W/m 10,5 km/h (2 Bft)
19.04.2015 00:20 7,2 C 6,1 C 72 % 1024,3 hPa 0,0 l/m 0 min 0 min 0,0 UV-I 0 W/m 10,5 km/h (2 Bft)
19.04.2015 00:22 7,2 C 6,1 C 72 % 1024,3 hPa 0,0 l/m 0 min 0 min 0,0 UV-I 0 W/m 12,6 km/h (3 Bft)
19.04.2015 00:24 7,2 C 6,1 C 72 % 1024,3 hPa 0,0 l/m 0 min 0 min 0,0 UV-I 0 W/m 12,6 km/h (3 Bft)
19.04.2015 00:26 7,2 C 6,1 C 72 % 1024,3 hPa 0,0 l/m 0 min 0 min 0,0 UV-I 0 W/m 10,5 km/h (2 Bft)
19.04.2015 00:28 7,3 C 6,1 C 72 % 1024,3 hPa 0,0 l/m 0 min 0 min 0,0 UV-I 0 W/m 10,5 km/h (2 Bft)
19.04.2015 00:30 7,3 C 6,1 C 72 % 1024,3 hPa 0,0 l/m 0 min 0 min 0,0 UV-I 0 W/m 12,6 km/h (3 Bft)
19.04.2015 00:32 7,3 C 6,1 C 72 % 1024,4 hPa 0,0 l/m 0 min 0 min 0,0 UV-I 0 W/m 10,5 km/h (2 Bft)
19.04.2015 00:34 7,3 C 6,1 C 72 % 1024,4 hPa 0,0 l/m 0 min 0 min 0,0 UV-I 0 W/m 12,6 km/h (3 Bft)
19.04.2015 00:36 7,3 C 6,1 C 72 % 1024,3 hPa 0,0 l/m 0 min 0 min 0,0 UV-I 0 W/m 12,6 km/h (3 Bft)
19.04.2015 00:38 7,3 C 5,6 C 72 % 1024,3 hPa 0,0 l/m 0 min 0 min 0,0 UV-I 0 W/m 10,5 km/h (2 Bft)
19.04.2015 00:40 7,3 C 5,6 C 72 % 1024,3 hPa 0,0 l/m 0 min 0 min 0,0 UV-I 0 W/m 14,6 km/h (3 Bft)
19.04.2015 00:42 7,3 C 5,6 C 72 % 1024,4 hPa 0,0 l/m 0 min 0 min 0,0 UV-I 0 W/m 10,5 km/h (2 Bft)
19.04.2015 00:44 7,3 C 5,6 C 72 % 1024,3 hPa 0,0 l/m 0 min 0 min 0,0 UV-I 0 W/m 10,5 km/h (2 Bft)
19.04.2015 00:46 7,3 C 5,6 C 72 % 1024,3 hPa 0,0 l/m 0 min 0 min 0,0 UV-I 0 W/m 10,5 km/h (2 Bft)
19.04.2015 00:48 7,3 C 5,6 C 72 % 1024,3 hPa 0,0 l/m 0 min 0 min 0,0 UV-I 0 W/m 8,4 km/h (2 Bft)
19.04.2015 00:50 7,3 C 5,6 C 72 % 1024,3 hPa 0,0 l/m 0 min 0 min 0,0 UV-I 0 W/m 10,5 km/h (2 Bft)
19.04.2015 00:52 7,2 C 5,6 C 72 % 1024,2 hPa 0,0 l/m 0 min 0 min 0,0 UV-I 0 W/m 10,5 km/h (2 Bft)
19.04.2015 00:54 7,2 C 5,6 C 72 % 1024,3 hPa 0,0 l/m 0 min 0 min 0,0 UV-I 0 W/m 10,5 km/h (2 Bft)
19.04.2015 00:56 7,2 C 5,6 C 72 % 1024,2 hPa 0,0 l/m 0 min 0 min 0,0 UV-I 0 W/m 8,4 km/h (2 Bft)
19.04.2015 00:58 7,2 C 5,6 C 72 % 1024,2 hPa 0,0 l/m 0 min 0 min 0,0 UV-I 0 W/m 8,4 km/h (2 Bft)
19.04.2015 01:00 7,2 C 5,6 C 72 % 1024,2 hPa 0,0 l/m 0 min 0 min 0,0 UV-I 0 W/m 8,4 km/h (2 Bft)
19.04.2015 01:02 7,2 C 5,6 C 73 % 1024,2 hPa 0,0 l/m 0 min 0 min 0,0 UV-I 0 W/m 6,3 km/h (2 Bft)
19.04.2015 01:04 7,1 C 5,6 C 73 % 1024,2 hPa 0,0 l/m 0 min 0 min 0,0 UV-I 0 W/m 8,4 km/h (2 Bft)
19.04.2015 01:06 7,1 C 5,6 C 73 % 1024,1 hPa 0,0 l/m 0 min 0 min 0,0 UV-I 0 W/m 8,4 km/h (2 Bft)
19.04.2015 01:08 7,1 C 5,6 C 73 % 1024,1 hPa 0,0 l/m 0 min 0 min 0,0 UV-I 0 W/m 8,4 km/h (2 Bft)
19.04.2015 01:10 7,0 C 5,0 C 73 % 1024,2 hPa 0,0 l/m 0 min 0 min 0,0 UV-I 0 W/m 8,4 km/h (2 Bft)
19.04.2015 01:12 7,0 C 5,0 C 73 % 1024,2 hPa 0,0 l/m 0 min 0 min 0,0 UV-I 0 W/m 8,4 km/h (2 Bft)
19.04.2015 01:14 7,0 C 5,0 C 73 % 1024,2 hPa 0,0 l/m 0 min 0 min 0,0 UV-I 0 W/m 6,3 km/h (2 Bft)
19.04.2015 01:16 6,9 C 5,0 C 73 % 1024,1 hPa 0,0 l/m 0 min 0 min 0,0 UV-I 0 W/m 6,3 km/h (2 Bft)
19.04.2015 01:18 6,9 C 5,0 C 73 % 1024,2 hPa 0,0 l/m 0 min 0 min 0,0 UV-I 0 W/m 6,3 km/h (2 Bft)
19.04.2015 01:20 6,9 C 4,4 C 73 % 1024,2 hPa 0,0 l/m 0 min 0 min 0,0 UV-I 0 W/m 6,3 km/h (2 Bft)
19.04.2015 01:22 6,9 C 4,4 C 73 % 1024,1 hPa 0,0 l/m 0 min 0 min 0,0 UV-I 0 W/m 4,2 km/h (1 Bft)
19.04.2015 01:24 6,8 C 4,4 C 73 % 1024,1 hPa 0,0 l/m 0 min 0 min 0,0 UV-I 0 W/m 4,2 km/h (1 Bft)
19.04.2015 01:26 6,8 C 4,4 C 73 % 1024,1 hPa 0,0 l/m 0 min 0 min 0,0 UV-I 0 W/m 4,2 km/h (1 Bft)
19.04.2015 01:28 6,8 C 3,9 C 73 % 1024,1 hPa 0,0 l/m 0 min 0 min 0,0 UV-I 0 W/m 4,2 km/h (1 Bft)
19.04.2015 01:30 6,8 C 3,9 C 73 % 1024,1 hPa 0,0 l/m 0 min 0 min 0,0 UV-I 0 W/m 2,1 km/h (1 Bft)
19.04.2015 01:32 6,7 C 3,9 C 73 % 1024,1 hPa 0,0 l/m 0 min 0 min 0,0 UV-I 0 W/m 2,1 km/h (1 Bft)
19.04.2015 01:34 6,7 C 3,9 C 73 % 1024,1 hPa 0,0 l/m 0 min 0 min 0,0 UV-I 0 W/m 2,1 km/h (1 Bft)
19.04.2015 01:36 6,7 C 3,9 C 73 % 1024,0 hPa 0,0 l/m 0 min 0 min 0,0 UV-I 0 W/m 4,2 km/h (1 Bft)
19.04.2015 01:38 6,6 C 3,3 C 73 % 1024,0 hPa 0,0 l/m 0 min 0 min 0,0 UV-I 0 W/m 2,1 km/h (1 Bft)
19.04.2015 01:40 6,6 C 3,3 C 73 % 1024,0 hPa 0,0 l/m 0 min 0 min 0,0 UV-I 0 W/m 4,2 km/h (1 Bft)
19.04.2015 01:42 6,5 C 3,3 C 73 % 1024,0 hPa 0,0 l/m 0 min 0 min 0,0 UV-I 0 W/m 4,2 km/h (1 Bft)
19.04.2015 01:44 6,4 C 3,3 C 73 % 1024,0 hPa 0,0 l/m 0 min 0 min 0,0 UV-I 0 W/m 4,2 km/h (1 Bft)
19.04.2015 01:46 6,4 C 3,3 C 74 % 1024,0 hPa 0,0 l/m 0 min 0 min 0,0 UV-I 0 W/m 4,2 km/h (1 Bft)
19.04.2015 01:48 6,3 C 3,3 C 74 % 1024,0 hPa 0,0 l/m 0 min 0 min 0,0 UV-I 0 W/m 4,2 km/h (1 Bft)
19.04.2015 01:50 6,3 C 3,3 C 74 % 1024,0 hPa 0,0 l/m 0 min 0 min 0,0 UV-I 0 W/m 4,2 km/h (1 Bft)
19.04.2015 01:52 6,2 C 3,3 C 74 % 1024,0 hPa 0,0 l/m 0 min 0 min 0,0 UV-I 0 W/m 4,2 km/h (1 Bft)
19.04.2015 01:54 6,2 C 3,3 C 74 % 1023,9 hPa 0,0 l/m 0 min 0 min 0,0 UV-I 0 W/m 4,2 km/h (1 Bft)
19.04.2015 01:56 6,1 C 3,3 C 74 % 1023,9 hPa 0,0 l/m 0 min 0 min 0,0 UV-I 0 W/m 4,2 km/h (1 Bft)
19.04.2015 01:58 6,1 C 2,8 C 75 % 1023,9 hPa 0,0 l/m 0 min 0 min 0,0 UV-I 0 W/m 4,2 km/h (1 Bft)
19.04.2015 02:00 6,1 C 2,8 C 75 % 1023,9 hPa 0,0 l/m 0 min 0 min 0,0 UV-I 0 W/m 4,2 km/h (1 Bft)
19.04.2015 02:02 6,0 C 2,8 C 75 % 1023,9 hPa 0,0 l/m 0 min 0 min 0,0 UV-I 0 W/m 4,2 km/h (1 Bft)
19.04.2015 02:04 5,9 C 2,8 C 75 % 1023,9 hPa 0,0 l/m 0 min 0 min 0,0 UV-I 0 W/m 4,2 km/h (1 Bft)
19.04.2015 02:06 5,9 C 2,8 C 75 % 1023,8 hPa 0,0 l/m 0 min 0 min 0,0 UV-I 0 W/m 6,3 km/h (2 Bft)
19.04.2015 02:08 5,8 C 2,8 C 76 % 1023,8 hPa 0,0 l/m 0 min 0 min 0,0 UV-I 0 W/m 6,3 km/h (2 Bft)
19.04.2015 02:10 5,8 C 2,8 C 76 % 1023,8 hPa 0,0 l/m 0 min 0 min 0,0 UV-I 0 W/m 6,3 km/h (2 Bft)
19.04.2015 02:12 5,7 C 2,8 C 76 % 1023,7 hPa 0,0 l/m 0 min 0 min 0,0 UV-I 0 W/m 6,3 km/h (2 Bft)
19.04.2015 02:14 5,7 C 2,8 C 76 % 1023,7 hPa 0,0 l/m 0 min 0 min 0,0 UV-I 0 W/m 6,3 km/h (2 Bft)
19.04.2015 02:16 5,6 C 2,8 C 76 % 1023,7 hPa 0,0 l/m 0 min 0 min 0,0 UV-I 0 W/m 6,3 km/h (2 Bft)
19.04.2015 02:18 5,6 C 2,8 C 77 % 1023,7 hPa 0,0 l/m 0 min 0 min 0,0 UV-I 0 W/m 4,2 km/h (1 Bft)
19.04.2015 02:20 5,5 C 2,8 C 77 % 1023,7 hPa 0,0 l/m 0 min 0 min 0,0 UV-I 0 W/m 6,3 km/h (2 Bft)
19.04.2015 02:22 5,4 C 2,8 C 77 % 1023,7 hPa 0,0 l/m 0 min 0 min 0,0 UV-I 0 W/m 6,3 km/h (2 Bft)
19.04.2015 02:24 5,4 C 2,8 C 77 % 1023,7 hPa 0,0 l/m 0 min 0 min 0,0 UV-I 0 W/m 6,3 km/h (2 Bft)
19.04.2015 02:26 5,4 C 2,8 C 77 % 1023,7 hPa 0,0 l/m 0 min 0 min 0,0 UV-I 0 W/m 4,2 km/h (1 Bft)
19.04.2015 02:28 5,3 C 3,3 C 78 % 1023,5 hPa 0,0 l/m 0 min 0 min 0,0 UV-I 0 W/m 8,4 km/h (2 Bft)
19.04.2015 02:30 5,3 C 3,3 C 78 % 1023,7 hPa 0,0 l/m 0 min 0 min 0,0 UV-I 0 W/m 6,3 km/h (2 Bft)
19.04.2015 02:32 5,3 C 3,3 C 78 % 1023,7 hPa 0,0 l/m 0 min 0 min 0,0 UV-I 0 W/m 6,3 km/h (2 Bft)
19.04.2015 02:34 5,3 C 3,3 C 78 % 1023,6 hPa 0,0 l/m 0 min 0 min 0,0 UV-I 0 W/m 4,2 km/h (1 Bft)
19.04.2015 02:36 5,2 C 3,3 C 79 % 1023,6 hPa 0,0 l/m 0 min 0 min 0,0 UV-I 0 W/m 6,3 km/h (2 Bft)
19.04.2015 02:38 5,2 C 3,3 C 79 % 1023,5 hPa 0,0 l/m 0 min 0 min 0,0 UV-I 0 W/m 6,3 km/h (2 Bft)
19.04.2015 02:40 5,2 C 3,3 C 79 % 1023,5 hPa 0,0 l/m 0 min 0 min 0,0 UV-I 0 W/m 12,6 km/h (3 Bft)
19.04.2015 02:42 5,2 C 3,9 C 79 % 1023,5 hPa 0,0 l/m 0 min 0 min 0,0 UV-I 0 W/m 6,3 km/h (2 Bft)
19.04.2015 02:44 5,2 C 3,3 C 80 % 1023,5 hPa 0,0 l/m 0 min 0 min 0,0 UV-I 0 W/m 8,4 km/h (2 Bft)
19.04.2015 02:46 5,1 C 3,3 C 80 % 1023,5 hPa 0,0 l/m 0 min 0 min 0,0 UV-I 0 W/m 6,3 km/h (2 Bft)
19.04.2015 02:48 5,1 C 3,3 C 80 % 1023,5 hPa 0,0 l/m 0 min 0 min 0,0 UV-I 0 W/m 4,2 km/h (1 Bft)
19.04.2015 02:50 5,1 C 3,3 C 80 % 1023,4 hPa 0,0 l/m 0 min 0 min 0,0 UV-I 0 W/m 6,3 km/h (2 Bft)
19.04.2015 02:52 5,1 C 3,3 C 80 % 1023,4 hPa 0,0 l/m 0 min 0 min 0,0 UV-I 0 W/m 4,2 km/h (1 Bft)
19.04.2015 02:54 5,1 C 3,3 C 81 % 1023,3 hPa 0,0 l/m 0 min 0 min 0,0 UV-I 0 W/m 8,4 km/h (2 Bft)
19.04.2015 02:56 5,1 C 3,3 C 81 % 1023,3 hPa 0,0 l/m 0 min 0 min 0,0 UV-I 0 W/m 6,3 km/h (2 Bft)
19.04.2015 02:58 5,1 C 3,3 C 81 % 1023,4 hPa 0,0 l/m 0 min 0 min 0,0 UV-I 0 W/m 10,5 km/h (2 Bft)
19.04.2015 03:00 5,0 C 3,3 C 81 % 1023,4 hPa 0,0 l/m 0 min 0 min 0,0 UV-I 0 W/m 6,3 km/h (2 Bft)
19.04.2015 03:02 5,0 C 3,3 C 81 % 1023,4 hPa 0,0 l/m 0 min 0 min 0,0 UV-I 0 W/m 4,2 km/h (1 Bft)
19.04.2015 03:04 5,0 C 3,3 C 82 % 1023,4 hPa 0,0 l/m 0 min 0 min 0,0 UV-I 0 W/m 4,2 km/h (1 Bft)
19.04.2015 03:06 5,0 C 3,3 C 82 % 1023,3 hPa 0,0 l/m 0 min 0 min 0,0 UV-I 0 W/m 6,3 km/h (2 Bft)
19.04.2015 03:08 4,9 C 2,8 C 81 % 1023,3 hPa 0,0 l/m 0 min 0 min 0,0 UV-I 0 W/m 6,3 km/h (2 Bft)
19.04.2015 03:10 4,9 C 2,8 C 82 % 1023,3 hPa 0,0 l/m 0 min 0 min 0,0 UV-I 0 W/m 6,3 km/h (2 Bft)
19.04.2015 03:12 4,9 C 2,8 C 82 % 1023,2 hPa 0,0 l/m 0 min 0 min 0,0 UV-I 0 W/m 6,3 km/h (2 Bft)
19.04.2015 03:14 4,9 C 2,8 C 82 % 1023,3 hPa 0,0 l/m 0 min 0 min 0,0 UV-I 0 W/m 6,3 km/h (2 Bft)
19.04.2015 03:16 4,9 C 2,8 C 82 % 1023,2 hPa 0,0 l/m 0 min 0 min 0,0 UV-I 0 W/m 6,3 km/h (2 Bft)
19.04.2015 03:18 4,9 C 2,8 C 82 % 1023,2 hPa 0,0 l/m 0 min 0 min 0,0 UV-I 0 W/m 6,3 km/h (2 Bft)
19.04.2015 03:20 4,8 C 2,8 C 82 % 1023,2 hPa 0,0 l/m 0 min 0 min 0,0 UV-I 0 W/m 6,3 km/h (2 Bft)
19.04.2015 03:22 4,8 C 2,8 C 82 % 1023,2 hPa 0,0 l/m 0 min 0 min 0,0 UV-I 0 W/m 8,4 km/h (2 Bft)
19.04.2015 03:24 4,8 C 2,8 C 82 % 1023,1 hPa 0,0 l/m 0 min 0 min 0,0 UV-I 0 W/m 6,3 km/h (2 Bft)
19.04.2015 03:26 4,8 C 2,8 C 82 % 1023,1 hPa 0,0 l/m 0 min 0 min 0,0 UV-I 0 W/m 6,3 km/h (2 Bft)
19.04.2015 03:28 4,8 C 2,8 C 82 % 1023,1 hPa 0,0 l/m 0 min 0 min 0,0 UV-I 0 W/m 6,3 km/h (2 Bft)
19.04.2015 03:30 4,7 C 2,8 C 83 % 1023,1 hPa 0,0 l/m 0 min 0 min 0,0 UV-I 0 W/m 6,3 km/h (2 Bft)
19.04.2015 03:32 4,7 C 2,8 C 83 % 1023,1 hPa 0,0 l/m 0 min 0 min 0,0 UV-I 0 W/m 6,3 km/h (2 Bft)
19.04.2015 03:34 4,7 C 3,3 C 83 % 1023,2 hPa 0,0 l/m 0 min 0 min 0,0 UV-I 0 W/m 8,4 km/h (2 Bft)
19.04.2015 03:36 4,7 C 3,3 C 83 % 1023,1 hPa 0,0 l/m 0 min 0 min 0,0 UV-I 0 W/m 6,3 km/h (2 Bft)
19.04.2015 03:38 4,7 C 3,3 C 84 % 1023,1 hPa 0,0 l/m 0 min 0 min 0,0 UV-I 0 W/m 8,4 km/h (2 Bft)
19.04.2015 03:40 4,7 C 3,3 C 84 % 1023,1 hPa 0,0 l/m 0 min 0 min 0,0 UV-I 0 W/m 6,3 km/h (2 Bft)
19.04.2015 03:42 4,7 C 3,3 C 84 % 1023,0 hPa 0,0 l/m 0 min 0 min 0,0 UV-I 0 W/m 6,3 km/h (2 Bft)
19.04.2015 03:44 4,7 C 3,3 C 84 % 1023,0 hPa 0,0 l/m 0 min 0 min 0,0 UV-I 0 W/m 6,3 km/h (2 Bft)
19.04.2015 03:46 4,6 C 3,3 C 84 % 1023,0 hPa 0,0 l/m 0 min 0 min 0,0 UV-I 0 W/m 6,3 km/h (2 Bft)
19.04.2015 03:48 4,6 C 3,3 C 85 % 1023,0 hPa 0,0 l/m 0 min 0 min 0,0 UV-I 0 W/m 6,3 km/h (2 Bft)
19.04.2015 03:50 4,6 C 3,3 C 85 % 1023,0 hPa 0,0 l/m 0 min 0 min 0,0 UV-I 0 W/m 6,3 km/h (2 Bft)
19.04.2015 03:52 4,6 C 3,3 C 85 % 1022,9 hPa 0,0 l/m 0 min 0 min 0,0 UV-I 0 W/m 8,4 km/h (2 Bft)
19.04.2015 03:54 4,6 C 3,3 C 85 % 1022,9 hPa 0,0 l/m 0 min 0 min 0,0 UV-I 0 W/m 10,5 km/h (2 Bft)
19.04.2015 03:56 4,6 C 3,3 C 85 % 1022,9 hPa 0,0 l/m 0 min 0 min 0,0 UV-I 0 W/m 8,4 km/h (2 Bft)
19.04.2015 03:58 4,5 C 3,3 C 86 % 1022,9 hPa 0,0 l/m 0 min 0 min 0,0 UV-I 0 W/m 6,3 km/h (2 Bft)
19.04.2015 04:00 4,5 C 2,8 C 86 % 1022,9 hPa 0,0 l/m 0 min 0 min 0,0 UV-I 0 W/m 6,3 km/h (2 Bft)
19.04.2015 04:02 4,4 C 2,8 C 86 % 1022,9 hPa 0,0 l/m 0 min 0 min 0,0 UV-I 0 W/m 6,3 km/h (2 Bft)
19.04.2015 04:04 4,4 C 2,8 C 86 % 1022,9 hPa 0,0 l/m 0 min 0 min 0,0 UV-I 0 W/m 6,3 km/h (2 Bft)
19.04.2015 04:06 4,4 C 2,8 C 86 % 1022,9 hPa 0,0 l/m 0 min 0 min 0,0 UV-I 0 W/m 6,3 km/h (2 Bft)
19.04.2015 04:08 4,4 C 2,8 C 86 % 1022,8 hPa 0,0 l/m 0 min 0 min 0,0 UV-I 0 W/m 4,2 km/h (1 Bft)
19.04.2015 04:10 4,4 C 2,8 C 86 % 1022,8 hPa 0,0 l/m 0 min 0 min 0,0 UV-I 0 W/m 4,2 km/h (1 Bft)
19.04.2015 04:12 4,4 C 2,8 C 87 % 1022,8 hPa 0,0 l/m 0 min 0 min 0,0 UV-I 0 W/m 6,3 km/h (2 Bft)
19.04.2015 04:14 4,3 C 2,8 C 87 % 1022,8 hPa 0,0 l/m 0 min 0 min 0,0 UV-I 0 W/m 6,3 km/h (2 Bft)
19.04.2015 04:16 4,3 C 2,8 C 87 % 1022,8 hPa 0,0 l/m 0 min 0 min 0,0 UV-I 0 W/m 6,3 km/h (2 Bft)
19.04.2015 04:18 4,3 C 2,8 C 87 % 1022,7 hPa 0,0 l/m 0 min 0 min 0,0 UV-I 0 W/m 4,2 km/h (1 Bft)
19.04.2015 04:20 4,3 C 2,8 C 87 % 1022,7 hPa 0,0 l/m 0 min 0 min 0,0 UV-I 0 W/m 6,3 km/h (2 Bft)
19.04.2015 04:22 4,3 C 2,8 C 87 % 1022,7 hPa 0,0 l/m 0 min 0 min 0,0 UV-I 0 W/m 6,3 km/h (2 Bft)
19.04.2015 04:24 4,2 C 2,2 C 87 % 1022,7 hPa 0,0 l/m 0 min 0 min 0,0 UV-I 0 W/m 6,3 km/h (2 Bft)
19.04.2015 04:26 4,2 C 2,2 C 87 % 1022,7 hPa 0,0 l/m 0 min 0 min 0,0 UV-I 0 W/m 4,2 km/h (1 Bft)
19.04.2015 04:28 4,2 C 2,2 C 87 % 1022,6 hPa 0,0 l/m 0 min 0 min 0,0 UV-I 0 W/m 6,3 km/h (2 Bft)
19.04.2015 04:30 4,2 C 2,2 C 87 % 1022,6 hPa 0,0 l/m 0 min 0 min 0,0 UV-I 0 W/m 6,3 km/h (2 Bft)
19.04.2015 04:32 4,2 C 2,2 C 87 % 1022,6 hPa 0,0 l/m 0 min 0 min 0,0 UV-I 0 W/m 6,3 km/h (2 Bft)
19.04.2015 04:34 4,1 C 2,2 C 87 % 1022,7 hPa 0,0 l/m 0 min 0 min 0,0 UV-I 0 W/m 6,3 km/h (2 Bft)
19.04.2015 04:36 4,1 C 2,2 C 87 % 1022,6 hPa 0,0 l/m 0 min 0 min 0,0 UV-I 0 W/m 6,3 km/h (2 Bft)
19.04.2015 04:38 4,1 C 2,2 C 87 % 1022,6 hPa 0,0 l/m 0 min 0 min 0,0 UV-I 0 W/m 4,2 km/h (1 Bft)
19.04.2015 04:40 4,1 C 2,2 C 87 % 1022,6 hPa 0,0 l/m 0 min 0 min 0,0 UV-I 0 W/m 8,4 km/h (2 Bft)
19.04.2015 04:42 4,1 C 2,2 C 87 % 1022,6 hPa 0,0 l/m 0 min 0 min 0,0 UV-I 0 W/m 4,2 km/h (1 Bft)
19.04.2015 04:44 4,0 C 2,8 C 87 % 1022,6 hPa 0,0 l/m 0 min 0 min 0,0 UV-I 0 W/m 6,3 km/h (2 Bft)
19.04.2015 04:46 4,0 C 2,2 C 87 % 1022,6 hPa 0,0 l/m 0 min 0 min 0,0 UV-I 0 W/m 8,4 km/h (2 Bft)
19.04.2015 04:48 3,9 C 2,2 C 87 % 1022,6 hPa 0,0 l/m 0 min 0 min 0,0 UV-I 0 W/m 6,3 km/h (2 Bft)
19.04.2015 04:50 3,9 C 2,2 C 88 % 1022,6 hPa 0,0 l/m 0 min 0 min 0,0 UV-I 0 W/m 8,4 km/h (2 Bft)
19.04.2015 04:52 3,9 C 2,8 C 88 % 1022,6 hPa 0,0 l/m 0 min 0 min 0,0 UV-I 0 W/m 8,4 km/h (2 Bft)
19.04.2015 04:54 3,9 C 2,8 C 88 % 1022,5 hPa 0,0 l/m 0 min 0 min 0,0 UV-I 0 W/m 8,4 km/h (2 Bft)
19.04.2015 04:56 3,9 C 2,8 C 88 % 1022,6 hPa 0,0 l/m 0 min 0 min 0,0 UV-I 0 W/m 8,4 km/h (2 Bft)
19.04.2015 04:58 3,9 C 2,8 C 88 % 1022,6 hPa 0,0 l/m 0 min 0 min 0,0 UV-I 0 W/m 10,5 km/h (2 Bft)
19.04.2015 05:00 3,8 C 2,8 C 88 % 1022,5 hPa 0,0 l/m 0 min 0 min 0,0 UV-I 0 W/m 6,3 km/h (2 Bft)
19.04.2015 05:02 3,8 C 2,2 C 88 % 1022,5 hPa 0,0 l/m 0 min 0 min 0,0 UV-I 0 W/m 8,4 km/h (2 Bft)
19.04.2015 05:04 3,8 C 2,2 C 88 % 1022,5 hPa 0,0 l/m 0 min 0 min 0,0 UV-I 0 W/m 6,3 km/h (2 Bft)
19.04.2015 05:06 3,8 C 2,2 C 89 % 1022,4 hPa 0,0 l/m 0 min 0 min 0,0 UV-I 0 W/m 6,3 km/h (2 Bft)
19.04.2015 05:08 3,8 C 2,2 C 89 % 1022,4 hPa 0,0 l/m 0 min 0 min 0,0 UV-I 0 W/m 4,2 km/h (1 Bft)
19.04.2015 05:10 3,7 C 2,2 C 89 % 1022,4 hPa 0,0 l/m 0 min 0 min 0,0 UV-I 0 W/m 8,4 km/h (2 Bft)
19.04.2015 05:12 3,7 C 2,2 C 89 % 1022,4 hPa 0,0 l/m 0 min 0 min 0,0 UV-I 0 W/m 6,3 km/h (2 Bft)
19.04.2015 05:14 3,7 C 2,2 C 89 % 1022,3 hPa 0,0 l/m 0 min 0 min 0,0 UV-I 0 W/m 4,2 km/h (1 Bft)
19.04.2015 05:16 3,7 C 2,2 C 89 % 1022,3 hPa 0,0 l/m 0 min 0 min 0,0 UV-I 0 W/m 4,2 km/h (1 Bft)
19.04.2015 05:18 3,7 C 2,2 C 89 % 1022,3 hPa 0,0 l/m 0 min 0 min 0,0 UV-I 0 W/m 4,2 km/h (1 Bft)
19.04.2015 05:20 3,7 C 2,2 C 89 % 1022,2 hPa 0,0 l/m 0 min 0 min 0,0 UV-I 0 W/m 6,3 km/h (2 Bft)
19.04.2015 05:22 3,7 C 2,2 C 89 % 1022,2 hPa 0,0 l/m 0 min 0 min 0,0 UV-I 0 W/m 4,2 km/h (1 Bft)
19.04.2015 05:24 3,6 C 2,2 C 89 % 1022,2 hPa 0,0 l/m 0 min 0 min 0,0 UV-I 0 W/m 4,2 km/h (1 Bft)
19.04.2015 05:26 3,6 C 2,2 C 89 % 1022,2 hPa 0,0 l/m 0 min 0 min 0,0 UV-I 0 W/m 4,2 km/h (1 Bft)
19.04.2015 05:28 3,6 C 2,2 C 89 % 1022,2 hPa 0,0 l/m 0 min 0 min 0,0 UV-I 0 W/m 8,4 km/h (2 Bft)
19.04.2015 05:30 3,6 C 2,2 C 89 % 1022,2 hPa 0,0 l/m 0 min 0 min 0,0 UV-I 0 W/m 4,2 km/h (1 Bft)
19.04.2015 05:32 3,6 C 2,2 C 89 % 1022,2 hPa 0,0 l/m 0 min 0 min 0,0 UV-I 0 W/m 6,3 km/h (2 Bft)
19.04.2015 05:34 3,5 C 1,7 C 89 % 1022,2 hPa 0,0 l/m 0 min 0 min 0,0 UV-I 0 W/m 6,3 km/h (2 Bft)
19.04.2015 05:36 3,5 C 1,7 C 89 % 1022,1 hPa 0,0 l/m 0 min 0 min 0,0 UV-I 0 W/m 4,2 km/h (1 Bft)
19.04.2015 05:38 3,5 C 1,7 C 89 % 1022,0 hPa 0,0 l/m 0 min 0 min 0,0 UV-I 0 W/m 4,2 km/h (1 Bft)
19.04.2015 05:40 3,4 C 1,7 C 89 % 1022,0 hPa 0,0 l/m 0 min 0 min 0,0 UV-I 0 W/m 6,3 km/h (2 Bft)
19.04.2015 05:42 3,4 C 1,7 C 89 % 1021,9 hPa 0,0 l/m 0 min 0 min 0,0 UV-I 0 W/m 6,3 km/h (2 Bft)
19.04.2015 05:44 3,4 C 1,7 C 89 % 1021,9 hPa 0,0 l/m 0 min 0 min 0,0 UV-I 0 W/m 4,2 km/h (1 Bft)
19.04.2015 05:46 3,4 C 1,7 C 89 % 1021,9 hPa 0,0 l/m 0 min 0 min 0,0 UV-I 0 W/m 6,3 km/h (2 Bft)
19.04.2015 05:48 3,4 C 1,7 C 89 % 1021,9 hPa 0,0 l/m 0 min 0 min 0,0 UV-I 0 W/m 6,3 km/h (2 Bft)
19.04.2015 05:50 3,3 C 1,7 C 89 % 1021,9 hPa 0,0 l/m 0 min 0 min 0,0 UV-I 0 W/m 4,2 km/h (1 Bft)
19.04.2015 05:52 3,3 C 1,7 C 89 % 1021,8 hPa 0,0 l/m 0 min 0 min 0,0 UV-I 0 W/m 4,2 km/h (1 Bft)
19.04.2015 05:54 3,3 C 1,7 C 89 % 1021,8 hPa 0,0 l/m 0 min 0 min 0,0 UV-I 0 W/m 4,2 km/h (1 Bft)
19.04.2015 05:56 3,3 C 1,7 C 89 % 1021,8 hPa 0,0 l/m 0 min 0 min 0,0 UV-I 0 W/m 4,2 km/h (1 Bft)
19.04.2015 05:58 3,2 C 1,7 C 89 % 1021,8 hPa 0,0 l/m 0 min 0 min 0,0 UV-I 0 W/m 4,2 km/h (1 Bft)
19.04.2015 06:00 3,2 C 1,7 C 89 % 1021,9 hPa 0,0 l/m 0 min 0 min 0,0 UV-I 0 W/m 6,3 km/h (2 Bft)
19.04.2015 06:02 3,2 C 1,1 C 89 % 1021,9 hPa 0,0 l/m 0 min 0 min 0,0 UV-I 0 W/m 6,3 km/h (2 Bft)
19.04.2015 06:06 3,2 C 1,1 C 89 % 1021,8 hPa 0,0 l/m 0 min 0 min 0,0 UV-I 0 W/m 4,2 km/h (1 Bft)
19.04.2015 06:08 3,1 C 1,1 C 89 % 1021,8 hPa 0,0 l/m 0 min 0 min 0,0 UV-I 0 W/m 6,3 km/h (2 Bft)
19.04.2015 06:10 3,1 C 1,7 C 89 % 1021,9 hPa 0,0 l/m 0 min 0 min 0,0 UV-I 0 W/m 6,3 km/h (2 Bft)
19.04.2015 06:12 3,1 C 1,7 C 89 % 1021,8 hPa 0,0 l/m 0 min 0 min 0,0 UV-I 0 W/m 6,3 km/h (2 Bft)
19.04.2015 06:14 3,1 C 1,7 C 89 % 1021,8 hPa 0,0 l/m 0 min 0 min 0,0 UV-I 0 W/m 4,2 km/h (1 Bft)
19.04.2015 06:16 3,0 C 1,1 C 90 % 1021,8 hPa 0,0 l/m 0 min 0 min 0,0 UV-I 0 W/m 6,3 km/h (2 Bft)
19.04.2015 06:18 3,0 C 1,1 C 90 % 1021,8 hPa 0,0 l/m 0 min 0 min 0,0 UV-I 0 W/m 4,2 km/h (1 Bft)
19.04.2015 06:20 2,9 C 1,7 C 90 % 1021,9 hPa 0,0 l/m 0 min 0 min 0,0 UV-I 0 W/m 6,3 km/h (2 Bft)
19.04.2015 06:22 2,9 C 1,7 C 90 % 1021,9 hPa 0,0 l/m 0 min 0 min 0,0 UV-I 0 W/m 10,5 km/h (2 Bft)
19.04.2015 06:24 2,9 C 1,7 C 90 % 1021,9 hPa 0,0 l/m 0 min 0 min 0,0 UV-I 0 W/m 10,5 km/h (2 Bft)
19.04.2015 06:26 2,9 C 1,7 C 90 % 1021,9 hPa 0,0 l/m 0 min 0 min 0,0 UV-I 0 W/m 8,4 km/h (2 Bft)
19.04.2015 06:28 2,9 C 1,7 C 90 % 1022,0 hPa 0,0 l/m 0 min 0 min 0,0 UV-I 0 W/m 8,4 km/h (2 Bft)
19.04.2015 06:30 2,9 C 1,7 C 90 % 1022,0 hPa 0,0 l/m 0 min 0 min 0,0 UV-I 1 W/m 6,3 km/h (2 Bft)
19.04.2015 06:32 2,9 C 1,7 C 90 % 1022,0 hPa 0,0 l/m 0 min 0 min 0,0 UV-I 5 W/m 8,4 km/h (2 Bft)
19.04.2015 06:34 2,9 C 1,7 C 90 % 1022,0 hPa 0,0 l/m 0 min 0 min 0,0 UV-I 5 W/m 10,5 km/h (2 Bft)
19.04.2015 06:36 2,8 C 1,7 C 90 % 1022,0 hPa 0,0 l/m 0 min 0 min 0,0 UV-I 6 W/m 12,6 km/h (3 Bft)
19.04.2015 06:38 2,8 C 1,7 C 90 % 1022,0 hPa 0,0 l/m 0 min 0 min 0,0 UV-I 7 W/m 10,5 km/h (2 Bft)
19.04.2015 06:40 2,8 C 1,7 C 90 % 1022,0 hPa 0,0 l/m 0 min 0 min 0,0 UV-I 8 W/m 14,6 km/h (3 Bft)
19.04.2015 06:42 2,8 C 1,7 C 91 % 1022,0 hPa 0,0 l/m 0 min 0 min 0,0 UV-I 10 W/m 10,5 km/h (2 Bft)
19.04.2015 06:44 2,8 C 1,7 C 91 % 1022,0 hPa 0,0 l/m 0 min 0 min 0,0 UV-I 11 W/m 12,6 km/h (3 Bft)
19.04.2015 06:46 2,8 C 1,7 C 91 % 1022,0 hPa 0,0 l/m 0 min 0 min 0,0 UV-I 13 W/m 8,4 km/h (2 Bft)
19.04.2015 06:48 2,8 C 1,7 C 91 % 1022,0 hPa 0,0 l/m 0 min 0 min 0,0 UV-I 14 W/m 8,4 km/h (2 Bft)
19.04.2015 06:50 2,8 C 1,7 C 91 % 1022,0 hPa 0,0 l/m 0 min 0 min 0,0 UV-I 17 W/m 10,5 km/h (2 Bft)
19.04.2015 06:52 2,8 C 1,7 C 91 % 1022,0 hPa 0,0 l/m 2 min 0 min 0,0 UV-I 19 W/m 8,4 km/h (2 Bft)
19.04.2015 06:54 2,8 C 1,7 C 91 % 1022,0 hPa 0,0 l/m 2 min 0 min 0,0 UV-I 23 W/m 8,4 km/h (2 Bft)
19.04.2015 06:56 2,8 C 1,7 C 91 % 1022,1 hPa 0,0 l/m 2 min 0 min 0,0 UV-I 25 W/m 10,5 km/h (2 Bft)
19.04.2015 06:58 2,8 C 1,7 C 91 % 1022,1 hPa 0,0 l/m 2 min 0 min 0,0 UV-I 29 W/m 10,5 km/h (2 Bft)
19.04.2015 07:00 2,8 C 1,7 C 91 % 1022,0 hPa 0,0 l/m 2 min 0 min 0,0 UV-I 32 W/m 6,3 km/h (2 Bft)
19.04.2015 07:02 2,8 C 1,7 C 92 % 1022,0 hPa 0,0 l/m 2 min 0 min 0,0 UV-I 34 W/m 8,4 km/h (2 Bft)
19.04.2015 07:04 2,8 C 1,7 C 92 % 1021,9 hPa 0,0 l/m 2 min 0 min 0,0 UV-I 35 W/m 6,3 km/h (2 Bft)
19.04.2015 07:06 2,8 C 1,7 C 92 % 1021,9 hPa 0,0 l/m 2 min 0 min 0,0 UV-I 38 W/m 6,3 km/h (2 Bft)
19.04.2015 07:08 2,8 C 1,7 C 92 % 1021,9 hPa 0,0 l/m 2 min 0 min 0,0 UV-I 41 W/m 6,3 km/h (2 Bft)
19.04.2015 07:10 2,8 C 2,2 C 92 % 1021,9 hPa 0,0 l/m 2 min 0 min 0,0 UV-I 45 W/m 8,4 km/h (2 Bft)
19.04.2015 07:12 2,8 C 2,2 C 92 % 1021,9 hPa 0,0 l/m 2 min 0 min 0,0 UV-I 50 W/m 6,3 km/h (2 Bft)
19.04.2015 07:14 2,8 C 2,2 C 92 % 1021,9 hPa 0,0 l/m 2 min 0 min 1,9 UV-I 57 W/m 6,3 km/h (2 Bft)
19.04.2015 07:16 2,8 C 2,2 C 92 % 1022,0 hPa 0,0 l/m 2 min 0 min 2,6 UV-I 65 W/m 8,4 km/h (2 Bft)
19.04.2015 07:18 2,9 C 2,2 C 92 % 1021,9 hPa 0,0 l/m 2 min 0 min 2,6 UV-I 70 W/m 8,4 km/h (2 Bft)
19.04.2015 07:20 2,9 C 2,2 C 92 % 1021,9 hPa 0,0 l/m 2 min 0 min 2,6 UV-I 76 W/m 10,5 km/h (2 Bft)
19.04.2015 07:22 2,9 C 2,2 C 92 % 1021,9 hPa 0,0 l/m 2 min 0 min 2,6 UV-I 88 W/m 10,5 km/h (2 Bft)
19.04.2015 07:24 2,9 C 2,2 C 92 % 1021,9 hPa 0,0 l/m 2 min 0 min 2,6 UV-I 96 W/m 8,4 km/h (2 Bft)
19.04.2015 07:26 2,9 C 2,2 C 92 % 1021,9 hPa 0,0 l/m 2 min 0 min 2,6 UV-I 101 W/m 6,3 km/h (2 Bft)
19.04.2015 07:28 2,9 C 2,2 C 92 % 1022,0 hPa 0,0 l/m 2 min 0 min 2,6 UV-I 100 W/m 6,3 km/h (2 Bft)
19.04.2015 07:30 3,0 C 2,8 C 92 % 1022,0 hPa 0,0 l/m 2 min 0 min 2,6 UV-I 101 W/m 6,3 km/h (2 Bft)
19.04.2015 07:32 3,0 C 2,8 C 93 % 1021,9 hPa 0,0 l/m 2 min 0 min 2,6 UV-I 100 W/m 6,3 km/h (2 Bft)
19.04.2015 07:34 3,1 C 2,8 C 93 % 1021,9 hPa 0,0 l/m 2 min 0 min 2,6 UV-I 103 W/m 8,4 km/h (2 Bft)
19.04.2015 07:36 3,1 C 2,8 C 93 % 1021,9 hPa 0,0 l/m 2 min 0 min 2,6 UV-I 112 W/m 8,4 km/h (2 Bft)
19.04.2015 07:38 3,1 C 2,8 C 93 % 1021,9 hPa 0,0 l/m 2 min 0 min 2,6 UV-I 130 W/m 6,3 km/h (2 Bft)
19.04.2015 07:40 3,2 C 2,8 C 93 % 1021,9 hPa 0,0 l/m 2 min 0 min 2,6 UV-I 149 W/m 8,4 km/h (2 Bft)
19.04.2015 07:42 3,2 C 2,8 C 93 % 1021,9 hPa 0,0 l/m 2 min 0 min 2,6 UV-I 154 W/m 6,3 km/h (2 Bft)
19.04.2015 07:44 3,2 C 2,8 C 93 % 1021,9 hPa 0,0 l/m 2 min 0 min 2,6 UV-I 160 W/m 6,3 km/h (2 Bft)
19.04.2015 07:46 3,3 C 3,3 C 93 % 1021,9 hPa 0,0 l/m 2 min 0 min 2,6 UV-I 162 W/m 6,3 km/h (2 Bft)
19.04.2015 07:48 3,3 C 3,3 C 93 % 1021,9 hPa 0,0 l/m 2 min 0 min 2,6 UV-I 166 W/m 6,3 km/h (2 Bft)
19.04.2015 07:50 3,3 C 3,3 C 93 % 1021,9 hPa 0,0 l/m 2 min 0 min 2,6 UV-I 168 W/m 4,2 km/h (1 Bft)
19.04.2015 07:52 3,4 C 3,3 C 93 % 1021,8 hPa 0,0 l/m 2 min 0 min 2,6 UV-I 165 W/m 8,4 km/h (2 Bft)
19.04.2015 07:54 3,4 C 3,3 C 93 % 1021,9 hPa 0,0 l/m 2 min 0 min 2,6 UV-I 166 W/m 8,4 km/h (2 Bft)
19.04.2015 07:56 3,5 C 3,3 C 93 % 1021,9 hPa 0,0 l/m 2 min 0 min 2,6 UV-I 163 W/m 6,3 km/h (2 Bft)
19.04.2015 07:58 3,5 C 3,3 C 93 % 1021,9 hPa 0,0 l/m 2 min 0 min 2,6 UV-I 160 W/m 8,4 km/h (2 Bft)
19.04.2015 08:00 3,6 C 3,3 C 93 % 1021,8 hPa 0,0 l/m 2 min 0 min 2,6 UV-I 157 W/m 6,3 km/h (2 Bft)
19.04.2015 08:02 3,6 C 3,3 C 93 % 1021,8 hPa 0,0 l/m 2 min 0 min 2,6 UV-I 153 W/m 4,2 km/h (1 Bft)
19.04.2015 08:04 3,7 C 3,3 C 93 % 1021,8 hPa 0,0 l/m 2 min 0 min 2,6 UV-I 145 W/m 4,2 km/h (1 Bft)
19.04.2015 08:06 3,7 C 3,3 C 93 % 1021,8 hPa 0,0 l/m 2 min 0 min 2,6 UV-I 145 W/m 4,2 km/h (1 Bft)
19.04.2015 08:08 3,7 C 3,3 C 93 % 1021,8 hPa 0,0 l/m 2 min 0 min 2,6 UV-I 146 W/m 4,2 km/h (1 Bft)
19.04.2015 08:10 3,7 C 3,9 C 93 % 1021,9 hPa 0,0 l/m 2 min 0 min 2,6 UV-I 151 W/m 4,2 km/h (1 Bft)
19.04.2015 08:12 3,8 C 3,9 C 93 % 1021,9 hPa 0,0 l/m 2 min 0 min 2,6 UV-I 157 W/m 4,2 km/h (1 Bft)
19.04.2015 08:14 3,8 C 3,9 C 93 % 1021,8 hPa 0,0 l/m 2 min 0 min 2,6 UV-I 160 W/m 6,3 km/h (2 Bft)
19.04.2015 08:16 3,8 C 3,9 C 93 % 1021,8 hPa 0,0 l/m 2 min 0 min 2,6 UV-I 167 W/m 8,4 km/h (2 Bft)
19.04.2015 08:18 3,9 C 3,9 C 93 % 1021,8 hPa 0,0 l/m 2 min 0 min 2,6 UV-I 164 W/m 8,4 km/h (2 Bft)
19.04.2015 08:20 3,9 C 3,9 C 93 % 1021,9 hPa 0,0 l/m 2 min 0 min 2,6 UV-I 172 W/m 6,3 km/h (2 Bft)
19.04.2015 08:22 4,0 C 3,9 C 93 % 1021,9 hPa 0,0 l/m 2 min 0 min 2,6 UV-I 172 W/m 8,4 km/h (2 Bft)
19.04.2015 08:24 4,1 C 3,9 C 94 % 1021,9 hPa 0,0 l/m 2 min 0 min 2,6 UV-I 165 W/m 8,4 km/h (2 Bft)
19.04.2015 08:26 4,1 C 3,9 C 94 % 1022,0 hPa 0,0 l/m 2 min 0 min 2,6 UV-I 156 W/m 8,4 km/h (2 Bft)
19.04.2015 08:28 4,2 C 3,9 C 94 % 1022,0 hPa 0,0 l/m 2 min 0 min 2,6 UV-I 163 W/m 8,4 km/h (2 Bft)
19.04.2015 08:30 4,2 C 3,9 C 94 % 1022,0 hPa 0,0 l/m 2 min 0 min 2,6 UV-I 172 W/m 8,4 km/h (2 Bft)
19.04.2015 08:32 4,2 C 3,9 C 94 % 1022,0 hPa 0,0 l/m 2 min 0 min 2,6 UV-I 173 W/m 12,6 km/h (3 Bft)
19.04.2015 08:34 4,3 C 4,4 C 94 % 1022,0 hPa 0,0 l/m 2 min 0 min 2,6 UV-I 179 W/m 10,5 km/h (2 Bft)
19.04.2015 08:36 4,3 C 4,4 C 94 % 1022,0 hPa 0,0 l/m 2 min 0 min 2,6 UV-I 194 W/m 8,4 km/h (2 Bft)
19.04.2015 08:38 4,4 C 4,4 C 94 % 1022,0 hPa 0,0 l/m 2 min 0 min 2,6 UV-I 202 W/m 8,4 km/h (2 Bft)
19.04.2015 08:40 4,4 C 4,4 C 94 % 1022,0 hPa 0,0 l/m 2 min 0 min 2,6 UV-I 210 W/m 10,5 km/h (2 Bft)
19.04.2015 08:42 4,5 C 4,4 C 94 % 1022,0 hPa 0,0 l/m 2 min 0 min 2,6 UV-I 221 W/m 12,6 km/h (3 Bft)
19.04.2015 08:44 4,6 C 4,4 C 94 % 1022,0 hPa 0,0 l/m 2 min 0 min 2,6 UV-I 222 W/m 10,5 km/h (2 Bft)
19.04.2015 08:46 4,6 C 4,4 C 94 % 1022,0 hPa 0,0 l/m 2 min 0 min 2,6 UV-I 224 W/m 10,5 km/h (2 Bft)
19.04.2015 08:48 4,7 C 4,4 C 94 % 1022,1 hPa 0,0 l/m 2 min 0 min 2,6 UV-I 227 W/m 12,6 km/h (3 Bft)
19.04.2015 08:50 4,7 C 5,0 C 94 % 1022,1 hPa 0,0 l/m 2 min 0 min 2,6 UV-I 233 W/m 10,5 km/h (2 Bft)
19.04.2015 08:52 4,7 C 5,0 C 94 % 1022,1 hPa 0,0 l/m 2 min 0 min 2,6 UV-I 221 W/m 8,4 km/h (2 Bft)
19.04.2015 08:54 4,8 C 5,0 C 94 % 1022,1 hPa 0,0 l/m 2 min 0 min 2,6 UV-I 210 W/m 12,6 km/h (3 Bft)
19.04.2015 08:56 4,8 C 5,0 C 94 % 1022,1 hPa 0,0 l/m 2 min 0 min 2,6 UV-I 207 W/m 12,6 km/h (3 Bft)
19.04.2015 08:58 4,9 C 5,0 C 93 % 1022,1 hPa 0,0 l/m 2 min 0 min 2,6 UV-I 220 W/m 12,6 km/h (3 Bft)
19.04.2015 09:00 4,9 C 5,0 C 93 % 1022,1 hPa 0,0 l/m 2 min 0 min 2,6 UV-I 237 W/m 12,6 km/h (3 Bft)
19.04.2015 09:02 4,9 C 5,0 C 93 % 1022,1 hPa 0,0 l/m 2 min 0 min 2,6 UV-I 252 W/m 12,6 km/h (3 Bft)
19.04.2015 09:04 5,0 C 5,0 C 93 % 1022,0 hPa 0,0 l/m 2 min 0 min 2,6 UV-I 270 W/m 12,6 km/h (3 Bft)
19.04.2015 09:06 5,1 C 5,6 C 93 % 1022,0 hPa 0,0 l/m 2 min 0 min 2,6 UV-I 282 W/m 8,4 km/h (2 Bft)
19.04.2015 09:08 5,1 C 5,6 C 93 % 1022,0 hPa 0,0 l/m 2 min 0 min 2,6 UV-I 285 W/m 12,6 km/h (3 Bft)
19.04.2015 09:10 5,2 C 5,0 C 93 % 1022,0 hPa 0,0 l/m 2 min 0 min 2,6 UV-I 283 W/m 14,6 km/h (3 Bft)
19.04.2015 09:12 5,2 C 5,0 C 93 % 1022,0 hPa 0,0 l/m 2 min 0 min 2,6 UV-I 279 W/m 12,6 km/h (3 Bft)
19.04.2015 09:14 5,2 C 5,6 C 93 % 1022,0 hPa 0,0 l/m 2 min 0 min 2,6 UV-I 277 W/m 10,5 km/h (2 Bft)
19.04.2015 09:16 5,3 C 5,6 C 93 % 1022,0 hPa 0,0 l/m 2 min 0 min 2,6 UV-I 290 W/m 10,5 km/h (2 Bft)
19.04.2015 09:18 5,3 C 5,6 C 93 % 1022,0 hPa 0,0 l/m 2 min 0 min 2,6 UV-I 295 W/m 10,5 km/h (2 Bft)
19.04.2015 09:20 5,4 C 5,6 C 93 % 1021,9 hPa 0,0 l/m 2 min 0 min 2,6 UV-I 302 W/m 16,7 km/h (3 Bft)
19.04.2015 09:22 5,4 C 5,6 C 93 % 1021,9 hPa 0,0 l/m 2 min 0 min 2,6 UV-I 321 W/m 10,5 km/h (2 Bft)
19.04.2015 09:24 5,5 C 6,1 C 92 % 1021,9 hPa 0,0 l/m 2 min 0 min 2,6 UV-I 337 W/m 12,6 km/h (3 Bft)
19.04.2015 09:26 5,6 C 6,1 C 93 % 1021,9 hPa 0,0 l/m 2 min 0 min 2,6 UV-I 348 W/m 14,6 km/h (3 Bft)
19.04.2015 09:28 5,7 C 6,1 C 92 % 1021,9 hPa 0,0 l/m 2 min 0 min 2,6 UV-I 343 W/m 12,6 km/h (3 Bft)
19.04.2015 09:30 5,7 C 6,1 C 92 % 1021,8 hPa 0,0 l/m 2 min 0 min 2,6 UV-I 364 W/m 8,4 km/h (2 Bft)
19.04.2015 09:32 5,8 C 6,1 C 92 % 1021,9 hPa 0,0 l/m 2 min 0 min 2,6 UV-I 381 W/m 12,6 km/h (3 Bft)
19.04.2015 09:34 5,8 C 6,1 C 92 % 1021,9 hPa 0,0 l/m 2 min 0 min 2,6 UV-I 403 W/m 12,6 km/h (3 Bft)
19.04.2015 09:36 5,9 C 6,1 C 92 % 1021,8 hPa 0,0 l/m 2 min 0 min 2,6 UV-I 380 W/m 12,6 km/h (3 Bft)
19.04.2015 09:38 6,0 C 6,7 C 92 % 1021,9 hPa 0,0 l/m 2 min 0 min 2,6 UV-I 363 W/m 12,6 km/h (3 Bft)
19.04.2015 09:40 6,1 C 6,7 C 91 % 1021,8 hPa 0,0 l/m 2 min 0 min 2,6 UV-I 349 W/m 10,5 km/h (2 Bft)
19.04.2015 09:42 6,1 C 6,7 C 91 % 1021,9 hPa 0,0 l/m 2 min 0 min 2,6 UV-I 335 W/m 12,6 km/h (3 Bft)
19.04.2015 09:44 6,2 C 6,7 C 91 % 1021,8 hPa 0,0 l/m 2 min 0 min 2,6 UV-I 334 W/m 10,5 km/h (2 Bft)
19.04.2015 09:46 6,3 C 6,7 C 91 % 1021,9 hPa 0,0 l/m 2 min 0 min 2,6 UV-I 325 W/m 12,6 km/h (3 Bft)
19.04.2015 09:48 6,3 C 7,2 C 90 % 1021,8 hPa 0,0 l/m 2 min 0 min 2,6 UV-I 328 W/m 12,6 km/h (3 Bft)
19.04.2015 09:50 6,4 C 7,2 C 90 % 1021,8 hPa 0,0 l/m 2 min 0 min 2,6 UV-I 344 W/m 10,5 km/h (2 Bft)
19.04.2015 09:52 6,5 C 7,2 C 90 % 1021,8 hPa 0,0 l/m 2 min 0 min 2,6 UV-I 352 W/m 14,6 km/h (3 Bft)
19.04.2015 09:54 6,6 C 7,2 C 90 % 1021,7 hPa 0,0 l/m 2 min 0 min 2,6 UV-I 362 W/m 10,5 km/h (2 Bft)
19.04.2015 09:56 6,7 C 7,2 C 90 % 1021,8 hPa 0,0 l/m 2 min 0 min 2,6 UV-I 381 W/m 10,5 km/h (2 Bft)
19.04.2015 09:58 6,7 C 7,2 C 89 % 1021,8 hPa 0,0 l/m 2 min 0 min 2,6 UV-I 407 W/m 8,4 km/h (2 Bft)
19.04.2015 10:00 6,8 C 7,2 C 89 % 1021,8 hPa 0,0 l/m 2 min 0 min 2,6 UV-I 436 W/m 10,5 km/h (2 Bft)
19.04.2015 10:02 6,9 C 7,2 C 89 % 1021,7 hPa 0,0 l/m 2 min 0 min 2,6 UV-I 462 W/m 10,5 km/h (2 Bft)
19.04.2015 10:04 6,9 C 7,2 C 88 % 1021,8 hPa 0,0 l/m 2 min 0 min 2,6 UV-I 492 W/m 10,5 km/h (2 Bft)
19.04.2015 10:06 7,1 C 7,8 C 88 % 1021,8 hPa 0,0 l/m 2 min 0 min 2,6 UV-I 509 W/m 10,5 km/h (2 Bft)
19.04.2015 10:08 7,2 C 7,8 C 88 % 1021,8 hPa 0,0 l/m 2 min 0 min 2,6 UV-I 487 W/m 12,6 km/h (3 Bft)
19.04.2015 10:10 7,2 C 7,2 C 87 % 1021,8 hPa 0,0 l/m 2 min 0 min 2,6 UV-I 452 W/m 12,6 km/h (3 Bft)
19.04.2015 10:12 7,3 C 7,8 C 87 % 1021,8 hPa 0,0 l/m 2 min 0 min 2,6 UV-I 424 W/m 10,5 km/h (2 Bft)
19.04.2015 10:14 7,3 C 7,8 C 87 % 1021,7 hPa 0,0 l/m 2 min 0 min 2,6 UV-I 416 W/m 10,5 km/h (2 Bft)
19.04.2015 10:16 7,4 C 8,3 C 86 % 1021,8 hPa 0,0 l/m 2 min 0 min 2,6 UV-I 403 W/m 4,2 km/h (1 Bft)
19.04.2015 10:18 7,5 C 8,3 C 86 % 1021,8 hPa 0,0 l/m 2 min 0 min 2,6 UV-I 394 W/m 10,5 km/h (2 Bft)
19.04.2015 10:20 7,6 C 8,3 C 86 % 1021,7 hPa 0,0 l/m 2 min 0 min 2,6 UV-I 380 W/m 10,5 km/h (2 Bft)
19.04.2015 10:22 7,7 C 7,8 C 86 % 1021,7 hPa 0,0 l/m 2 min 0 min 2,6 UV-I 390 W/m 10,5 km/h (2 Bft)
19.04.2015 10:24 7,8 C 7,8 C 85 % 1021,7 hPa 0,0 l/m 2 min 0 min 2,6 UV-I 398 W/m 10,5 km/h (2 Bft)
19.04.2015 10:26 7,8 C 7,8 C 84 % 1021,8 hPa 0,0 l/m 2 min 0 min 2,6 UV-I 411 W/m 10,5 km/h (2 Bft)
19.04.2015 10:28 7,8 C 8,3 C 84 % 1021,7 hPa 0,0 l/m 2 min 0 min 2,6 UV-I 428 W/m 14,6 km/h (3 Bft)
19.04.2015 10:30 7,9 C 8,3 C 84 % 1021,8 hPa 0,0 l/m 2 min 0 min 2,6 UV-I 425 W/m 10,5 km/h (2 Bft)
19.04.2015 10:32 8,0 C 8,3 C 84 % 1021,8 hPa 0,0 l/m 2 min 0 min 2,6 UV-I 409 W/m 10,5 km/h (2 Bft)
19.04.2015 10:34 8,1 C 8,9 C 83 % 1021,8 hPa 0,0 l/m 2 min 0 min 2,6 UV-I 391 W/m 6,3 km/h (2 Bft)
19.04.2015 10:36 8,1 C 8,3 C 83 % 1021,8 hPa 0,0 l/m 2 min 0 min 2,6 UV-I 392 W/m 8,4 km/h (2 Bft)
19.04.2015 10:38 8,2 C 8,3 C 83 % 1021,8 hPa 0,0 l/m 2 min 0 min 2,6 UV-I 407 W/m 4,2 km/h (1 Bft)
19.04.2015 10:40 8,3 C 8,3 C 82 % 1021,9 hPa 0,0 l/m 2 min 0 min 2,6 UV-I 404 W/m 10,5 km/h (2 Bft)
19.04.2015 10:42 8,3 C 8,3 C 82 % 1021,8 hPa 0,0 l/m 2 min 0 min 2,6 UV-I 398 W/m 10,5 km/h (2 Bft)
19.04.2015 10:44 8,4 C 8,9 C 82 % 1021,8 hPa 0,0 l/m 2 min 0 min 2,6 UV-I 434 W/m 12,6 km/h (3 Bft)
19.04.2015 10:46 8,5 C 8,9 C 82 % 1021,8 hPa 0,0 l/m 2 min 0 min 2,6 UV-I 478 W/m 10,5 km/h (2 Bft)
19.04.2015 10:48 8,6 C 8,3 C 81 % 1021,9 hPa 0,0 l/m 2 min 0 min 2,6 UV-I 496 W/m 10,5 km/h (2 Bft)
19.04.2015 10:50 8,6 C 8,3 C 81 % 1021,8 hPa 0,0 l/m 2 min 0 min 2,6 UV-I 529 W/m 4,2 km/h (1 Bft)
19.04.2015 10:52 8,7 C 8,9 C 81 % 1021,8 hPa 0,0 l/m 2 min 0 min 2,6 UV-I 538 W/m 10,5 km/h (2 Bft)
19.04.2015 10:54 8,8 C 8,9 C 81 % 1021,7 hPa 0,0 l/m 2 min 0 min 2,6 UV-I 544 W/m 10,5 km/h (2 Bft)
19.04.2015 10:56 8,9 C 8,9 C 81 % 1021,8 hPa 0,0 l/m 2 min 0 min 2,6 UV-I 574 W/m 8,4 km/h (2 Bft)
19.04.2015 10:58 8,9 C 9,4 C 81 % 1021,7 hPa 0,0 l/m 2 min 0 min 2,7 UV-I 603 W/m 12,6 km/h (3 Bft)
19.04.2015 11:00 9,1 C 9,4 C 80 % 1021,8 hPa 0,0 l/m 2 min 0 min 2,7 UV-I 635 W/m 14,6 km/h (3 Bft)
19.04.2015 11:02 9,1 C 9,4 C 79 % 1021,8 hPa 0,0 l/m 2 min 0 min 2,7 UV-I 661 W/m 14,6 km/h (3 Bft)
19.04.2015 11:04 9,2 C 9,4 C 79 % 1021,7 hPa 0,0 l/m 2 min 0 min 2,7 UV-I 680 W/m 10,5 km/h (2 Bft)
19.04.2015 11:06 9,2 C 9,4 C 79 % 1021,9 hPa 0,0 l/m 2 min 0 min 2,7 UV-I 672 W/m 16,7 km/h (3 Bft)
19.04.2015 11:08 9,3 C 9,4 C 79 % 1021,8 hPa 0,0 l/m 2 min 0 min 2,7 UV-I 641 W/m 14,6 km/h (3 Bft)
19.04.2015 11:10 9,4 C 9,4 C 78 % 1021,9 hPa 0,0 l/m 2 min 0 min 2,7 UV-I 637 W/m 16,7 km/h (3 Bft)
19.04.2015 11:12 9,4 C 10,0 C 79 % 1021,8 hPa 0,0 l/m 2 min 0 min 2,7 UV-I 615 W/m 10,5 km/h (2 Bft)
19.04.2015 11:14 9,6 C 10,0 C 78 % 1021,8 hPa 0,0 l/m 2 min 0 min 2,7 UV-I 548 W/m 10,5 km/h (2 Bft)
19.04.2015 11:16 9,6 C 10,0 C 78 % 1021,7 hPa 0,0 l/m 2 min 0 min 2,7 UV-I 593 W/m 8,4 km/h (2 Bft)
19.04.2015 11:18 9,7 C 10,0 C 78 % 1021,7 hPa 0,0 l/m 2 min 0 min 2,7 UV-I 614 W/m 10,5 km/h (2 Bft)
19.04.2015 11:20 9,8 C 10,0 C 77 % 1021,8 hPa 0,0 l/m 2 min 0 min 2,7 UV-I 635 W/m 8,4 km/h (2 Bft)
19.04.2015 11:22 10,0 C 10,6 C 77 % 1021,7 hPa 0,0 l/m 2 min 0 min 2,7 UV-I 639 W/m 10,5 km/h (2 Bft)
19.04.2015 11:24 10,1 C 10,6 C 77 % 1021,7 hPa 0,0 l/m 2 min 0 min 2,7 UV-I 619 W/m 6,3 km/h (2 Bft)
19.04.2015 11:26 10,2 C 10,0 C 76 % 1021,7 hPa 0,0 l/m 2 min 0 min 2,7 UV-I 617 W/m 12,6 km/h (3 Bft)
19.04.2015 11:28 10,3 C 10,6 C 76 % 1021,7 hPa 0,0 l/m 2 min 0 min 2,7 UV-I 598 W/m 10,5 km/h (2 Bft)
19.04.2015 11:30 10,4 C 10,6 C 75 % 1021,7 hPa 0,0 l/m 2 min 0 min 2,7 UV-I 608 W/m 8,4 km/h (2 Bft)
19.04.2015 11:32 10,5 C 10,0 C 74 % 1021,7 hPa 0,0 l/m 2 min 0 min 2,7 UV-I 618 W/m 10,5 km/h (2 Bft)
19.04.2015 11:34 10,6 C 10,0 C 73 % 1021,7 hPa 0,0 l/m 2 min 0 min 2,7 UV-I 608 W/m 4,2 km/h (1 Bft)
19.04.2015 11:36 10,7 C 10,6 C 74 % 1021,6 hPa 0,0 l/m 2 min 0 min 2,7 UV-I 620 W/m 8,4 km/h (2 Bft)
19.04.2015 11:38 10,8 C 10,6 C 73 % 1021,7 hPa 0,0 l/m 2 min 0 min 2,7 UV-I 594 W/m 10,5 km/h (2 Bft)
19.04.2015 11:40 10,8 C 10,6 C 72 % 1021,6 hPa 0,0 l/m 2 min 0 min 2,7 UV-I 594 W/m 8,4 km/h (2 Bft)
19.04.2015 11:42 10,8 C 10,6 C 73 % 1021,6 hPa 0,0 l/m 2 min 0 min 2,7 UV-I 548 W/m 8,4 km/h (2 Bft)
19.04.2015 11:44 10,9 C 11,1 C 73 % 1021,6 hPa 0,0 l/m 2 min 0 min 2,7 UV-I 548 W/m 6,3 km/h (2 Bft)
19.04.2015 11:46 11,1 C 11,1 C 73 % 1021,6 hPa 0,0 l/m 2 min 0 min 2,7 UV-I 554 W/m 6,3 km/h (2 Bft)
19.04.2015 11:48 11,2 C 11,1 C 73 % 1021,6 hPa 0,0 l/m 2 min 0 min 2,7 UV-I 572 W/m 6,3 km/h (2 Bft)
19.04.2015 11:50 11,2 C 11,1 C 72 % 1021,5 hPa 0,0 l/m 2 min 0 min 2,7 UV-I 612 W/m 6,3 km/h (2 Bft)
19.04.2015 11:52 11,3 C 11,1 C 72 % 1021,6 hPa 0,0 l/m 2 min 0 min 2,7 UV-I 627 W/m 8,4 km/h (2 Bft)
19.04.2015 11:54 11,4 C 11,1 C 72 % 1021,6 hPa 0,0 l/m 2 min 0 min 2,7 UV-I 641 W/m 6,3 km/h (2 Bft)
19.04.2015 11:56 11,5 C 11,1 C 71 % 1021,6 hPa 0,0 l/m 2 min 0 min 2,7 UV-I 641 W/m 8,4 km/h (2 Bft)
19.04.2015 11:58 11,6 C 11,7 C 71 % 1021,6 hPa 0,0 l/m 2 min 0 min 2,7 UV-I 623 W/m 6,3 km/h (2 Bft)
19.04.2015 12:00 11,8 C 11,7 C 72 % 1021,5 hPa 0,0 l/m 2 min 0 min 2,7 UV-I 592 W/m 8,4 km/h (2 Bft)
19.04.2015 12:02 11,9 C 11,7 C 71 % 1021,6 hPa 0,0 l/m 2 min 0 min 2,7 UV-I 510 W/m 14,6 km/h (3 Bft)
19.04.2015 12:06 12,0 C 11,1 C 69 % 1021,5 hPa 0,0 l/m 0 min 0 min 2,7 UV-I 313 W/m 10,5 km/h (2 Bft)
19.04.2015 12:08 12,1 C 11,7 C 69 % 1021,5 hPa 0,0 l/m 0 min 0 min 2,7 UV-I 256 W/m 8,4 km/h (2 Bft)
19.04.2015 12:10 12,1 C 11,7 C 70 % 1021,5 hPa 0,0 l/m 0 min 0 min 2,7 UV-I 286 W/m 6,3 km/h (2 Bft)
19.04.2015 12:12 12,2 C 11,7 C 69 % 1021,5 hPa 0,0 l/m 2 min 0 min 2,7 UV-I 403 W/m 10,5 km/h (2 Bft)
19.04.2015 12:14 12,3 C 11,7 C 69 % 1021,5 hPa 0,0 l/m 2 min 0 min 2,7 UV-I 557 W/m 12,6 km/h (3 Bft)
19.04.2015 12:16 12,3 C 12,2 C 69 % 1021,5 hPa 0,0 l/m 2 min 0 min 2,7 UV-I 689 W/m 12,6 km/h (3 Bft)
19.04.2015 12:18 12,4 C 12,2 C 69 % 1021,5 hPa 0,0 l/m 2 min 0 min 2,7 UV-I 746 W/m 10,5 km/h (2 Bft)
19.04.2015 12:20 12,5 C 11,7 C 67 % 1021,5 hPa 0,0 l/m 2 min 0 min 2,7 UV-I 749 W/m 12,6 km/h (3 Bft)
19.04.2015 12:22 12,5 C 11,7 C 66 % 1021,5 hPa 0,0 l/m 2 min 0 min 2,7 UV-I 750 W/m 6,3 km/h (2 Bft)
19.04.2015 12:24 12,6 C 11,7 C 67 % 1021,4 hPa 0,0 l/m 2 min 0 min 2,7 UV-I 748 W/m 8,4 km/h (2 Bft)
19.04.2015 12:26 12,6 C 12,2 C 66 % 1021,3 hPa 0,0 l/m 2 min 0 min 2,7 UV-I 765 W/m 12,6 km/h (3 Bft)
19.04.2015 12:28 12,7 C 11,7 C 66 % 1021,4 hPa 0,0 l/m 2 min 0 min 2,7 UV-I 775 W/m 12,6 km/h (3 Bft)
19.04.2015 12:30 12,7 C 12,2 C 66 % 1021,4 hPa 0,0 l/m 2 min 0 min 2,7 UV-I 781 W/m 12,6 km/h (3 Bft)
19.04.2015 12:32 12,7 C 12,2 C 65 % 1021,4 hPa 0,0 l/m 2 min 0 min 2,7 UV-I 770 W/m 12,6 km/h (3 Bft)
19.04.2015 12:34 12,8 C 12,2 C 65 % 1021,4 hPa 0,0 l/m 2 min 0 min 2,7 UV-I 770 W/m 10,5 km/h (2 Bft)
19.04.2015 12:36 12,8 C 12,2 C 64 % 1021,5 hPa 0,0 l/m 2 min 0 min 2,7 UV-I 772 W/m 12,6 km/h (3 Bft)
19.04.2015 12:38 12,8 C 12,2 C 65 % 1021,4 hPa 0,0 l/m 2 min 0 min 2,7 UV-I 769 W/m 10,5 km/h (2 Bft)
19.04.2015 12:40 12,9 C 12,8 C 66 % 1021,4 hPa 0,0 l/m 2 min 0 min 2,7 UV-I 774 W/m 10,5 km/h (2 Bft)
19.04.2015 12:42 13,1 C 12,8 C 64 % 1021,3 hPa 0,0 l/m 2 min 0 min 2,7 UV-I 787 W/m 12,6 km/h (3 Bft)
19.04.2015 12:44 13,2 C 13,3 C 64 % 1021,3 hPa 0,0 l/m 2 min 0 min 2,7 UV-I 781 W/m 12,6 km/h (3 Bft)
19.04.2015 12:46 13,3 C 12,8 C 63 % 1021,3 hPa 0,0 l/m 2 min 0 min 2,7 UV-I 789 W/m 8,4 km/h (2 Bft)
19.04.2015 12:48 13,3 C 12,8 C 63 % 1021,3 hPa 0,0 l/m 2 min 0 min 2,7 UV-I 798 W/m 12,6 km/h (3 Bft)
19.04.2015 12:50 13,4 C 12,8 C 62 % 1021,3 hPa 0,0 l/m 2 min 0 min 2,7 UV-I 793 W/m 12,6 km/h (3 Bft)
19.04.2015 12:52 13,4 C 12,8 C 62 % 1021,4 hPa 0,0 l/m 2 min 0 min 2,7 UV-I 787 W/m 12,6 km/h (3 Bft)
19.04.2015 12:54 13,4 C 12,8 C 61 % 1021,3 hPa 0,0 l/m 2 min 0 min 2,7 UV-I 790 W/m 16,7 km/h (3 Bft)
19.04.2015 12:56 13,4 C 13,3 C 61 % 1021,3 hPa 0,0 l/m 2 min 0 min 2,7 UV-I 766 W/m 12,6 km/h (3 Bft)
19.04.2015 12:58 13,5 C 13,9 C 60 % 1021,4 hPa 0,0 l/m 2 min 0 min 2,7 UV-I 758 W/m 10,5 km/h (2 Bft)
19.04.2015 13:00 13,5 C 13,9 C 59 % 1021,4 hPa 0,0 l/m 2 min 0 min 2,7 UV-I 768 W/m 6,3 km/h (2 Bft)
19.04.2015 13:02 13,6 C 13,9 C 59 % 1021,3 hPa 0,0 l/m 2 min 0 min 2,7 UV-I 787 W/m 8,4 km/h (2 Bft)
19.04.2015 13:04 13,6 C 13,9 C 60 % 1021,3 hPa 0,0 l/m 2 min 0 min 2,7 UV-I 790 W/m 6,3 km/h (2 Bft)
19.04.2015 13:06 13,7 C 13,9 C 60 % 1021,3 hPa 0,0 l/m 2 min 0 min 2,7 UV-I 815 W/m 14,6 km/h (3 Bft)
19.04.2015 13:08 13,8 C 13,3 C 59 % 1021,3 hPa 0,0 l/m 2 min 0 min 2,7 UV-I 822 W/m 10,5 km/h (2 Bft)
19.04.2015 13:10 13,8 C 13,3 C 58 % 1021,3 hPa 0,0 l/m 2 min 0 min 2,7 UV-I 816 W/m 8,4 km/h (2 Bft)
19.04.2015 13:12 13,8 C 13,3 C 59 % 1021,3 hPa 0,0 l/m 2 min 0 min 2,7 UV-I 582 W/m 6,3 km/h (2 Bft)
19.04.2015 13:14 13,9 C 12,8 C 59 % 1021,3 hPa 0,0 l/m 0 min 0 min 2,7 UV-I 310 W/m 12,6 km/h (3 Bft)
19.04.2015 13:16 13,8 C 13,3 C 58 % 1021,3 hPa 0,0 l/m 2 min 0 min 2,7 UV-I 450 W/m 12,6 km/h (3 Bft)
19.04.2015 13:18 13,8 C 13,3 C 57 % 1021,2 hPa 0,0 l/m 2 min 0 min 2,7 UV-I 844 W/m 12,6 km/h (3 Bft)
19.04.2015 13:20 13,9 C 13,9 C 58 % 1021,2 hPa 0,0 l/m 2 min 0 min 2,7 UV-I 819 W/m 14,6 km/h (3 Bft)
19.04.2015 13:22 13,9 C 13,9 C 58 % 1021,2 hPa 0,0 l/m 2 min 0 min 2,7 UV-I 819 W/m 6,3 km/h (2 Bft)
19.04.2015 13:24 14,0 C 14,4 C 58 % 1021,2 hPa 0,0 l/m 2 min 0 min 2,7 UV-I 818 W/m 16,7 km/h (3 Bft)
19.04.2015 13:26 14,2 C 14,4 C 57 % 1021,3 hPa 0,0 l/m 2 min 0 min 2,7 UV-I 796 W/m 18,8 km/h (3 Bft)
19.04.2015 13:28 14,2 C 14,4 C 55 % 1021,3 hPa 0,0 l/m 2 min 0 min 2,7 UV-I 792 W/m 10,5 km/h (2 Bft)
19.04.2015 13:30 14,2 C 15,0 C 56 % 1021,3 hPa 0,0 l/m 2 min 0 min 2,7 UV-I 781 W/m 10,5 km/h (2 Bft)
19.04.2015 13:32 14,4 C 15,0 C 56 % 1021,3 hPa 0,0 l/m 2 min 0 min 2,7 UV-I 749 W/m 6,3 km/h (2 Bft)
19.04.2015 13:34 14,5 C 15,0 C 55 % 1021,3 hPa 0,0 l/m 2 min 0 min 2,7 UV-I 720 W/m 6,3 km/h (2 Bft)
19.04.2015 13:36 14,6 C 14,4 C 56 % 1021,3 hPa 0,0 l/m 2 min 0 min 2,7 UV-I 683 W/m 12,6 km/h (3 Bft)
19.04.2015 13:38 14,7 C 14,4 C 54 % 1021,3 hPa 0,0 l/m 2 min 0 min 2,7 UV-I 735 W/m 18,8 km/h (3 Bft)
19.04.2015 13:40 14,7 C 14,4 C 53 % 1021,3 hPa 0,0 l/m 2 min 0 min 2,7 UV-I 751 W/m 14,6 km/h (3 Bft)
19.04.2015 13:42 14,7 C 14,4 C 52 % 1021,3 hPa 0,0 l/m 2 min 0 min 2,7 UV-I 787 W/m 12,6 km/h (3 Bft)
19.04.2015 13:44 14,8 C 14,4 C 52 % 1021,2 hPa 0,0 l/m 2 min 0 min 2,7 UV-I 799 W/m 10,5 km/h (2 Bft)
19.04.2015 13:46 14,8 C 14,4 C 53 % 1021,2 hPa 0,0 l/m 2 min 0 min 2,7 UV-I 789 W/m 10,5 km/h (2 Bft)
19.04.2015 13:48 14,9 C 14,4 C 54 % 1021,2 hPa 0,0 l/m 2 min 0 min 2,7 UV-I 764 W/m 10,5 km/h (2 Bft)
19.04.2015 13:50 14,9 C 15,0 C 53 % 1021,1 hPa 0,0 l/m 2 min 0 min 2,7 UV-I 737 W/m 10,5 km/h (2 Bft)
19.04.2015 13:52 15,0 C 15,0 C 51 % 1021,2 hPa 0,0 l/m 2 min 0 min 2,7 UV-I 741 W/m 14,6 km/h (3 Bft)
19.04.2015 13:54 15,1 C 14,4 C 51 % 1021,2 hPa 0,0 l/m 2 min 0 min 2,7 UV-I 755 W/m 12,6 km/h (3 Bft)
19.04.2015 13:56 15,0 C 14,4 C 51 % 1021,2 hPa 0,0 l/m 2 min 0 min 2,7 UV-I 705 W/m 10,5 km/h (2 Bft)
19.04.2015 13:58 15,0 C 14,4 C 50 % 1021,2 hPa 0,0 l/m 2 min 0 min 2,7 UV-I 620 W/m 18,8 km/h (3 Bft)
19.04.2015 14:00 15,0 C 15,0 C 49 % 1021,2 hPa 0,0 l/m 2 min 0 min 2,7 UV-I 573 W/m 16,7 km/h (3 Bft)
19.04.2015 14:02 15,1 C 15,0 C 50 % 1021,2 hPa 0,0 l/m 2 min 0 min 2,7 UV-I 620 W/m 10,5 km/h (2 Bft)
19.04.2015 14:04 15,1 C 15,6 C 52 % 1021,2 hPa 0,0 l/m 2 min 0 min 2,7 UV-I 648 W/m 14,6 km/h (3 Bft)
19.04.2015 14:06 15,2 C 15,0 C 50 % 1021,2 hPa 0,0 l/m 2 min 0 min 2,7 UV-I 620 W/m 14,6 km/h (3 Bft)
19.04.2015 14:08 15,2 C 15,0 C 49 % 1021,2 hPa 0,0 l/m 2 min 0 min 2,7 UV-I 656 W/m 10,5 km/h (2 Bft)
19.04.2015 14:10 15,3 C 15,6 C 51 % 1021,2 hPa 0,0 l/m 2 min 0 min 2,7 UV-I 627 W/m 12,6 km/h (3 Bft)
19.04.2015 14:12 15,4 C 15,6 C 50 % 1021,2 hPa 0,0 l/m 2 min 0 min 2,7 UV-I 662 W/m 10,5 km/h (2 Bft)
19.04.2015 14:14 15,5 C 16,1 C 50 % 1021,2 hPa 0,0 l/m 2 min 0 min 2,7 UV-I 677 W/m 6,3 km/h (2 Bft)
19.04.2015 14:16 15,6 C 16,1 C 49 % 1021,2 hPa 0,0 l/m 2 min 0 min 2,7 UV-I 659 W/m 10,5 km/h (2 Bft)
19.04.2015 14:18 15,6 C 16,1 C 48 % 1021,2 hPa 0,0 l/m 2 min 0 min 2,7 UV-I 642 W/m 10,5 km/h (2 Bft)
19.04.2015 14:20 15,7 C 16,1 C 48 % 1021,1 hPa 0,0 l/m 2 min 0 min 2,7 UV-I 634 W/m 10,5 km/h (2 Bft)
19.04.2015 14:22 15,7 C 16,1 C 49 % 1021,2 hPa 0,0 l/m 2 min 0 min 2,7 UV-I 645 W/m 12,6 km/h (3 Bft)
19.04.2015 14:24 15,7 C 16,1 C 48 % 1021,2 hPa 0,0 l/m 2 min 0 min 2,7 UV-I 637 W/m 14,6 km/h (3 Bft)
19.04.2015 14:26 15,7 C 16,7 C 48 % 1021,2 hPa 0,0 l/m 2 min 0 min 2,7 UV-I 607 W/m 12,6 km/h (3 Bft)
19.04.2015 14:28 15,7 C 16,7 C 47 % 1021,2 hPa 0,0 l/m 2 min 0 min 2,7 UV-I 562 W/m 12,6 km/h (3 Bft)
19.04.2015 14:30 15,7 C 17,2 C 50 % 1021,1 hPa 0,0 l/m 2 min 0 min 2,7 UV-I 545 W/m 14,6 km/h (3 Bft)
19.04.2015 14:32 15,7 C 17,8 C 49 % 1021,2 hPa 0,0 l/m 2 min 0 min 2,7 UV-I 543 W/m 14,6 km/h (3 Bft)
19.04.2015 14:34 15,7 C 17,2 C 48 % 1021,1 hPa 0,0 l/m 2 min 0 min 2,7 UV-I 563 W/m 8,4 km/h (2 Bft)
19.04.2015 14:36 15,7 C 18,3 C 50 % 1021,1 hPa 0,0 l/m 2 min 0 min 2,7 UV-I 605 W/m 8,4 km/h (2 Bft)
19.04.2015 14:38 15,7 C 18,9 C 50 % 1021,1 hPa 0,0 l/m 2 min 0 min 2,7 UV-I 622 W/m 4,2 km/h (1 Bft)
19.04.2015 14:40 15,7 C 20,0 C 51 % 1021,1 hPa 0,0 l/m 2 min 0 min 2,7 UV-I 660 W/m 4,2 km/h (1 Bft)
19.04.2015 14:42 15,8 C 20,0 C 49 % 1021,1 hPa 0,0 l/m 2 min 0 min 2,7 UV-I 667 W/m 8,4 km/h (2 Bft)
19.04.2015 14:44 15,8 C 19,4 C 48 % 1021,1 hPa 0,0 l/m 2 min 0 min 2,7 UV-I 658 W/m 8,4 km/h (2 Bft)
19.04.2015 14:46 15,8 C 20,0 C 48 % 1021,1 hPa 0,0 l/m 2 min 0 min 2,7 UV-I 617 W/m 10,5 km/h (2 Bft)
19.04.2015 14:48 15,8 C 19,4 C 48 % 1021,1 hPa 0,0 l/m 2 min 0 min 2,7 UV-I 570 W/m 10,5 km/h (2 Bft)
19.04.2015 14:50 15,8 C 18,9 C 47 % 1021,1 hPa 0,0 l/m 2 min 0 min 2,7 UV-I 552 W/m 8,4 km/h (2 Bft)
19.04.2015 14:52 15,8 C 18,9 C 48 % 1021,1 hPa 0,0 l/m 2 min 0 min 2,7 UV-I 573 W/m 12,6 km/h (3 Bft)
19.04.2015 14:54 15,8 C 20,0 C 48 % 1021,1 hPa 0,0 l/m 2 min 0 min 2,7 UV-I 572 W/m 12,6 km/h (3 Bft)
19.04.2015 14:56 15,9 C 20,0 C 48 % 1021,0 hPa 0,0 l/m 2 min 0 min 2,7 UV-I 575 W/m 14,6 km/h (3 Bft)
19.04.2015 14:58 15,9 C 19,4 C 48 % 1021,0 hPa 0,0 l/m 2 min 0 min 2,7 UV-I 546 W/m 18,8 km/h (3 Bft)
19.04.2015 15:00 15,9 C 19,4 C 47 % 1021,0 hPa 0,0 l/m 2 min 0 min 2,7 UV-I 590 W/m 6,3 km/h (2 Bft)
19.04.2015 15:02 15,9 C 20,0 C 47 % 1021,0 hPa 0,0 l/m 2 min 0 min 2,7 UV-I 573 W/m 14,6 km/h (3 Bft)
19.04.2015 15:04 15,9 C 19,4 C 47 % 1021,0 hPa 0,0 l/m 2 min 0 min 2,7 UV-I 522 W/m 14,6 km/h (3 Bft)
19.04.2015 15:06 15,8 C 19,4 C 47 % 1021,0 hPa 0,0 l/m 2 min 0 min 2,7 UV-I 511 W/m 4,2 km/h (1 Bft)
19.04.2015 15:08 15,8 C 19,4 C 48 % 1021,0 hPa 0,0 l/m 2 min 0 min 2,7 UV-I 489 W/m 8,4 km/h (2 Bft)
19.04.2015 15:10 15,8 C 18,3 C 47 % 1021,0 hPa 0,0 l/m 2 min 0 min 2,7 UV-I 489 W/m 8,4 km/h (2 Bft)
19.04.2015 15:12 15,8 C 19,4 C 48 % 1021,0 hPa 0,0 l/m 2 min 0 min 2,7 UV-I 503 W/m 8,4 km/h (2 Bft)
19.04.2015 15:14 15,8 C 19,4 C 50 % 1020,9 hPa 0,0 l/m 2 min 0 min 2,7 UV-I 506 W/m 10,5 km/h (2 Bft)
19.04.2015 15:16 15,8 C 20,0 C 49 % 1020,9 hPa 0,0 l/m 2 min 0 min 2,7 UV-I 566 W/m 8,4 km/h (2 Bft)
19.04.2015 15:18 15,8 C 20,6 C 50 % 1020,8 hPa 0,0 l/m 2 min 0 min 2,7 UV-I 599 W/m 10,5 km/h (2 Bft)
19.04.2015 15:20 15,9 C 21,1 C 51 % 1020,9 hPa 0,0 l/m 2 min 0 min 2,7 UV-I 566 W/m 8,4 km/h (2 Bft)
19.04.2015 15:22 15,9 C 20,6 C 50 % 1020,9 hPa 0,0 l/m 2 min 0 min 2,7 UV-I 512 W/m 6,3 km/h (2 Bft)
19.04.2015 15:24 15,9 C 20,6 C 49 % 1020,9 hPa 0,0 l/m 2 min 0 min 2,7 UV-I 467 W/m 8,4 km/h (2 Bft)
19.04.2015 15:26 16,0 C 20,6 C 48 % 1020,8 hPa 0,0 l/m 2 min 0 min 2,7 UV-I 466 W/m 12,6 km/h (3 Bft)
19.04.2015 15:28 16,0 C 20,0 C 48 % 1020,8 hPa 0,0 l/m 2 min 0 min 2,7 UV-I 505 W/m 8,4 km/h (2 Bft)
19.04.2015 15:30 16,0 C 19,4 C 47 % 1020,8 hPa 0,0 l/m 2 min 0 min 2,7 UV-I 535 W/m 18,8 km/h (3 Bft)
19.04.2015 15:32 15,9 C 18,9 C 47 % 1020,8 hPa 0,0 l/m 2 min 0 min 2,7 UV-I 525 W/m 12,6 km/h (3 Bft)
19.04.2015 15:34 15,8 C 18,9 C 47 % 1020,8 hPa 0,0 l/m 2 min 0 min 2,7 UV-I 530 W/m 12,6 km/h (3 Bft)
19.04.2015 15:36 15,8 C 19,4 C 48 % 1020,8 hPa 0,0 l/m 2 min 0 min 2,7 UV-I 523 W/m 18,8 km/h (3 Bft)
19.04.2015 15:38 15,7 C 19,4 C 47 % 1020,7 hPa 0,0 l/m 2 min 0 min 2,7 UV-I 495 W/m 10,5 km/h (2 Bft)
19.04.2015 15:40 15,7 C 18,9 C 46 % 1020,6 hPa 0,0 l/m 2 min 0 min 2,7 UV-I 472 W/m 8,4 km/h (2 Bft)
19.04.2015 15:42 15,7 C 19,4 C 47 % 1020,6 hPa 0,0 l/m 2 min 0 min 2,7 UV-I 480 W/m 8,4 km/h (2 Bft)
19.04.2015 15:44 15,7 C 20,0 C 48 % 1020,6 hPa 0,0 l/m 2 min 0 min 2,7 UV-I 506 W/m 14,6 km/h (3 Bft)
19.04.2015 15:46 15,7 C 20,0 C 47 % 1020,6 hPa 0,0 l/m 2 min 0 min 2,7 UV-I 520 W/m 6,3 km/h (2 Bft)
19.04.2015 15:48 15,7 C 20,6 C 50 % 1020,6 hPa 0,0 l/m 2 min 0 min 2,7 UV-I 537 W/m 6,3 km/h (2 Bft)
19.04.2015 15:50 15,8 C 21,1 C 48 % 1020,6 hPa 0,0 l/m 2 min 0 min 2,7 UV-I 533 W/m 6,3 km/h (2 Bft)
19.04.2015 15:52 15,8 C 21,1 C 47 % 1020,6 hPa 0,0 l/m 2 min 0 min 2,7 UV-I 524 W/m 4,2 km/h (1 Bft)
19.04.2015 15:54 15,9 C 21,7 C 50 % 1020,6 hPa 0,0 l/m 2 min 0 min 2,7 UV-I 491 W/m 8,4 km/h (2 Bft)
19.04.2015 15:56 16,0 C 20,6 C 47 % 1020,5 hPa 0,0 l/m 2 min 0 min 2,7 UV-I 478 W/m 6,3 km/h (2 Bft)
19.04.2015 15:58 16,0 C 20,6 C 47 % 1020,5 hPa 0,0 l/m 2 min 0 min 2,7 UV-I 455 W/m 10,5 km/h (2 Bft)
19.04.2015 16:00 16,0 C 20,0 C 46 % 1020,5 hPa 0,0 l/m 2 min 0 min 2,7 UV-I 449 W/m 12,6 km/h (3 Bft)
19.04.2015 16:02 15,9 C 18,9 C 45 % 1020,5 hPa 0,0 l/m 2 min 0 min 2,7 UV-I 440 W/m 12,6 km/h (3 Bft)
19.04.2015 16:04 15,9 C 19,4 C 46 % 1020,5 hPa 0,0 l/m 2 min 0 min 2,7 UV-I 409 W/m 6,3 km/h (2 Bft)
19.04.2015 16:06 15,9 C 19,4 C 48 % 1020,4 hPa 0,0 l/m 2 min 0 min 2,7 UV-I 401 W/m 10,5 km/h (2 Bft)
19.04.2015 16:08 15,9 C 19,4 C 47 % 1020,4 hPa 0,0 l/m 2 min 0 min 2,7 UV-I 399 W/m 10,5 km/h (2 Bft)
19.04.2015 16:10 15,9 C 18,9 C 47 % 1020,4 hPa 0,0 l/m 2 min 0 min 2,7 UV-I 378 W/m 8,4 km/h (2 Bft)
19.04.2015 16:12 15,9 C 18,9 C 47 % 1020,4 hPa 0,0 l/m 2 min 0 min 2,7 UV-I 384 W/m 8,4 km/h (2 Bft)
19.04.2015 16:14 15,9 C 18,9 C 46 % 1020,5 hPa 0,0 l/m 2 min 0 min 2,7 UV-I 390 W/m 8,4 km/h (2 Bft)
19.04.2015 16:16 15,9 C 20,0 C 47 % 1020,4 hPa 0,0 l/m 2 min 0 min 2,7 UV-I 398 W/m 14,6 km/h (3 Bft)
19.04.2015 16:18 15,9 C 20,6 C 49 % 1020,4 hPa 0,0 l/m 2 min 0 min 2,7 UV-I 398 W/m 6,3 km/h (2 Bft)
19.04.2015 16:20 16,0 C 20,6 C 48 % 1020,4 hPa 0,0 l/m 2 min 0 min 2,7 UV-I 396 W/m 14,6 km/h (3 Bft)
19.04.2015 16:22 16,0 C 19,4 C 46 % 1020,4 hPa 0,0 l/m 2 min 0 min 2,7 UV-I 392 W/m 10,5 km/h (2 Bft)
19.04.2015 16:24 16,0 C 19,4 C 45 % 1020,4 hPa 0,0 l/m 2 min 0 min 2,7 UV-I 392 W/m 4,2 km/h (1 Bft)
19.04.2015 16:26 16,0 C 19,4 C 47 % 1020,3 hPa 0,0 l/m 2 min 0 min 2,7 UV-I 396 W/m 6,3 km/h (2 Bft)
19.04.2015 16:28 16,0 C 19,4 C 46 % 1020,4 hPa 0,0 l/m 2 min 0 min 2,7 UV-I 395 W/m 10,5 km/h (2 Bft)
19.04.2015 16:30 16,1 C 20,0 C 46 % 1020,4 hPa 0,0 l/m 2 min 0 min 2,7 UV-I 414 W/m 4,2 km/h (1 Bft)
19.04.2015 16:32 16,1 C 20,6 C 47 % 1020,3 hPa 0,0 l/m 2 min 0 min 2,7 UV-I 435 W/m 2,1 km/h (1 Bft)
19.04.2015 16:34 16,1 C 20,6 C 46 % 1020,3 hPa 0,0 l/m 2 min 0 min 2,7 UV-I 430 W/m 4,2 km/h (1 Bft)
19.04.2015 16:36 16,2 C 20,0 C 45 % 1020,4 hPa 0,0 l/m 2 min 0 min 2,7 UV-I 427 W/m 12,6 km/h (3 Bft)
19.04.2015 16:38 16,2 C 20,0 C 47 % 1020,4 hPa 0,0 l/m 2 min 0 min 2,7 UV-I 420 W/m 16,7 km/h (3 Bft)
19.04.2015 16:40 16,2 C 19,4 C 48 % 1020,4 hPa 0,0 l/m 2 min 0 min 2,7 UV-I 421 W/m 18,8 km/h (3 Bft)
19.04.2015 16:42 16,2 C 19,4 C 47 % 1020,3 hPa 0,0 l/m 2 min 0 min 2,7 UV-I 424 W/m 12,6 km/h (3 Bft)
19.04.2015 16:44 16,2 C 18,3 C 46 % 1020,3 hPa 0,0 l/m 2 min 0 min 2,7 UV-I 407 W/m 18,8 km/h (3 Bft)
19.04.2015 16:46 16,1 C 17,8 C 46 % 1020,3 hPa 0,0 l/m 2 min 0 min 2,7 UV-I 398 W/m 14,6 km/h (3 Bft)
19.04.2015 16:48 16,0 C 17,8 C 47 % 1020,3 hPa 0,0 l/m 2 min 0 min 2,7 UV-I 378 W/m 16,7 km/h (3 Bft)
19.04.2015 16:50 15,9 C 17,8 C 47 % 1020,3 hPa 0,0 l/m 2 min 0 min 2,7 UV-I 377 W/m 12,6 km/h (3 Bft)
19.04.2015 16:52 15,9 C 17,8 C 47 % 1020,3 hPa 0,0 l/m 2 min 0 min 2,7 UV-I 379 W/m 18,8 km/h (3 Bft)
19.04.2015 16:54 15,8 C 17,8 C 48 % 1020,4 hPa 0,0 l/m 2 min 0 min 2,7 UV-I 374 W/m 18,8 km/h (3 Bft)
19.04.2015 16:56 15,8 C 17,8 C 48 % 1020,4 hPa 0,0 l/m 2 min 0 min 2,7 UV-I 384 W/m 20,9 km/h (4 Bft)
19.04.2015 16:58 15,7 C 17,8 C 49 % 1020,4 hPa 0,0 l/m 2 min 0 min 2,7 UV-I 387 W/m 18,8 km/h (3 Bft)
19.04.2015 17:00 15,7 C 17,8 C 49 % 1020,4 hPa 0,0 l/m 2 min 0 min 2,7 UV-I 365 W/m 14,6 km/h (3 Bft)
19.04.2015 17:02 15,6 C 18,3 C 49 % 1020,4 hPa 0,0 l/m 2 min 0 min 2,7 UV-I 350 W/m 10,5 km/h (2 Bft)
19.04.2015 17:04 15,6 C 17,8 C 49 % 1020,4 hPa 0,0 l/m 2 min 0 min 2,7 UV-I 337 W/m 18,8 km/h (3 Bft)
19.04.2015 17:06 15,6 C 18,3 C 49 % 1020,4 hPa 0,0 l/m 2 min 0 min 2,7 UV-I 329 W/m 16,7 km/h (3 Bft)
19.04.2015 17:08 15,6 C 18,3 C 49 % 1020,5 hPa 0,0 l/m 2 min 0 min 2,7 UV-I 333 W/m 10,5 km/h (2 Bft)
19.04.2015 17:10 15,6 C 18,3 C 50 % 1020,4 hPa 0,0 l/m 2 min 0 min 2,7 UV-I 333 W/m 14,6 km/h (3 Bft)
19.04.2015 17:12 15,5 C 18,3 C 50 % 1020,4 hPa 0,0 l/m 2 min 0 min 2,7 UV-I 307 W/m 14,6 km/h (3 Bft)
19.04.2015 17:14 15,5 C 18,3 C 50 % 1020,4 hPa 0,0 l/m 2 min 0 min 2,7 UV-I 282 W/m 10,5 km/h (2 Bft)
19.04.2015 17:16 15,5 C 17,8 C 50 % 1020,4 hPa 0,0 l/m 2 min 0 min 2,7 UV-I 267 W/m 14,6 km/h (3 Bft)
19.04.2015 17:18 15,5 C 16,7 C 51 % 1020,4 hPa 0,0 l/m 2 min 0 min 2,7 UV-I 244 W/m 16,7 km/h (3 Bft)
19.04.2015 17:20 15,4 C 16,1 C 50 % 1020,4 hPa 0,0 l/m 2 min 0 min 2,7 UV-I 255 W/m 8,4 km/h (2 Bft)
19.04.2015 17:22 15,4 C 16,1 C 50 % 1020,3 hPa 0,0 l/m 2 min 0 min 2,7 UV-I 280 W/m 10,5 km/h (2 Bft)
19.04.2015 17:24 15,4 C 16,1 C 51 % 1020,4 hPa 0,0 l/m 2 min 0 min 2,7 UV-I 286 W/m 18,8 km/h (3 Bft)
19.04.2015 17:26 15,4 C 15,6 C 51 % 1020,4 hPa 0,0 l/m 2 min 0 min 2,7 UV-I 286 W/m 16,7 km/h (3 Bft)
19.04.2015 17:28 15,4 C 15,0 C 50 % 1020,3 hPa 0,0 l/m 2 min 0 min 2,7 UV-I 291 W/m 14,6 km/h (3 Bft)
19.04.2015 17:30 15,3 C 15,0 C 50 % 1020,5 hPa 0,0 l/m 2 min 0 min 2,7 UV-I 282 W/m 10,5 km/h (2 Bft)
19.04.2015 17:32 15,3 C 15,0 C 50 % 1020,5 hPa 0,0 l/m 2 min 0 min 2,7 UV-I 269 W/m 10,5 km/h (2 Bft)
19.04.2015 17:34 15,3 C 15,0 C 51 % 1020,4 hPa 0,0 l/m 2 min 0 min 2,7 UV-I 241 W/m 14,6 km/h (3 Bft)
19.04.2015 17:36 15,3 C 15,0 C 51 % 1020,5 hPa 0,0 l/m 2 min 0 min 2,7 UV-I 238 W/m 14,6 km/h (3 Bft)
19.04.2015 17:38 15,3 C 15,0 C 51 % 1020,5 hPa 0,0 l/m 2 min 0 min 2,7 UV-I 247 W/m 10,5 km/h (2 Bft)
19.04.2015 17:40 15,3 C 14,4 C 51 % 1020,5 hPa 0,0 l/m 2 min 0 min 2,7 UV-I 257 W/m 14,6 km/h (3 Bft)
19.04.2015 17:42 15,3 C 14,4 C 50 % 1020,5 hPa 0,0 l/m 2 min 0 min 2,7 UV-I 272 W/m 10,5 km/h (2 Bft)
19.04.2015 17:44 15,3 C 15,0 C 51 % 1020,5 hPa 0,0 l/m 2 min 0 min 2,7 UV-I 276 W/m 14,6 km/h (3 Bft)
19.04.2015 17:46 15,3 C 15,0 C 51 % 1020,6 hPa 0,0 l/m 2 min 0 min 2,7 UV-I 274 W/m 14,6 km/h (3 Bft)
19.04.2015 17:48 15,3 C 15,0 C 52 % 1020,5 hPa 0,0 l/m 2 min 0 min 2,7 UV-I 289 W/m 12,6 km/h (3 Bft)
19.04.2015 17:50 15,4 C 15,0 C 52 % 1020,6 hPa 0,0 l/m 2 min 0 min 2,7 UV-I 294 W/m 20,9 km/h (4 Bft)
19.04.2015 17:52 15,4 C 15,0 C 51 % 1020,5 hPa 0,0 l/m 2 min 0 min 2,7 UV-I 296 W/m 14,6 km/h (3 Bft)
19.04.2015 17:54 15,4 C 15,0 C 51 % 1020,6 hPa 0,0 l/m 2 min 0 min 2,7 UV-I 314 W/m 14,6 km/h (3 Bft)
19.04.2015 17:56 15,4 C 15,0 C 52 % 1020,4 hPa 0,0 l/m 2 min 0 min 2,7 UV-I 325 W/m 10,5 km/h (2 Bft)
19.04.2015 17:58 15,4 C 15,0 C 51 % 1020,5 hPa 0,0 l/m 2 min 0 min 2,7 UV-I 329 W/m 12,6 km/h (3 Bft)
19.04.2015 18:00 15,5 C 15,0 C 51 % 1020,5 hPa 0,0 l/m 2 min 0 min 2,7 UV-I 336 W/m 12,6 km/h (3 Bft)
19.04.2015 18:02 15,6 C 15,0 C 52 % 1020,4 hPa 0,0 l/m 2 min 0 min 2,7 UV-I 336 W/m 16,7 km/h (3 Bft)
19.04.2015 18:06 15,7 C 15,0 C 52 % 1020,5 hPa 0,0 l/m 2 min 0 min 2,7 UV-I 325 W/m 18,8 km/h (3 Bft)
19.04.2015 18:08 15,7 C 15,0 C 51 % 1020,5 hPa 0,0 l/m 2 min 0 min 2,7 UV-I 315 W/m 16,7 km/h (3 Bft)
19.04.2015 18:10 15,7 C 15,0 C 51 % 1020,4 hPa 0,0 l/m 2 min 0 min 2,7 UV-I 307 W/m 12,6 km/h (3 Bft)
19.04.2015 18:12 15,7 C 15,0 C 51 % 1020,4 hPa 0,0 l/m 2 min 0 min 2,7 UV-I 292 W/m 14,6 km/h (3 Bft)
19.04.2015 18:14 15,7 C 15,0 C 51 % 1020,5 hPa 0,0 l/m 2 min 0 min 2,7 UV-I 288 W/m 18,8 km/h (3 Bft)
19.04.2015 18:16 15,7 C 14,4 C 51 % 1020,4 hPa 0,0 l/m 2 min 0 min 2,7 UV-I 288 W/m 18,8 km/h (3 Bft)
19.04.2015 18:18 15,7 C 14,4 C 51 % 1020,4 hPa 0,0 l/m 2 min 0 min 2,7 UV-I 286 W/m 20,9 km/h (4 Bft)
19.04.2015 18:20 15,7 C 14,4 C 51 % 1020,5 hPa 0,0 l/m 2 min 0 min 2,7 UV-I 274 W/m 16,7 km/h (3 Bft)
19.04.2015 18:22 15,7 C 14,4 C 50 % 1020,6 hPa 0,0 l/m 2 min 0 min 2,7 UV-I 268 W/m 16,7 km/h (3 Bft)
19.04.2015 18:24 15,6 C 14,4 C 51 % 1020,5 hPa 0,0 l/m 2 min 0 min 2,7 UV-I 259 W/m 16,7 km/h (3 Bft)
19.04.2015 18:26 15,6 C 14,4 C 51 % 1020,6 hPa 0,0 l/m 2 min 0 min 2,7 UV-I 253 W/m 16,7 km/h (3 Bft)
19.04.2015 18:28 15,6 C 14,4 C 51 % 1020,6 hPa 0,0 l/m 2 min 0 min 2,7 UV-I 247 W/m 16,7 km/h (3 Bft)
19.04.2015 18:30 15,6 C 14,4 C 51 % 1020,6 hPa 0,0 l/m 2 min 0 min 2,7 UV-I 247 W/m 20,9 km/h (4 Bft)
19.04.2015 18:32 15,6 C 13,9 C 51 % 1020,6 hPa 0,0 l/m 2 min 0 min 2,7 UV-I 247 W/m 20,9 km/h (4 Bft)
19.04.2015 18:34 15,6 C 14,4 C 51 % 1020,6 hPa 0,0 l/m 2 min 0 min 2,7 UV-I 240 W/m 14,6 km/h (3 Bft)
19.04.2015 18:36 15,6 C 14,4 C 51 % 1020,6 hPa 0,0 l/m 2 min 0 min 2,7 UV-I 235 W/m 16,7 km/h (3 Bft)
19.04.2015 18:38 15,6 C 14,4 C 51 % 1020,6 hPa 0,0 l/m 2 min 0 min 2,7 UV-I 229 W/m 16,7 km/h (3 Bft)
19.04.2015 18:40 15,6 C 14,4 C 51 % 1020,6 hPa 0,0 l/m 2 min 0 min 2,7 UV-I 222 W/m 14,6 km/h (3 Bft)
19.04.2015 18:42 15,6 C 14,4 C 51 % 1020,6 hPa 0,0 l/m 2 min 0 min 2,7 UV-I 215 W/m 14,6 km/h (3 Bft)
19.04.2015 18:44 15,6 C 14,4 C 51 % 1020,6 hPa 0,0 l/m 2 min 0 min 2,7 UV-I 209 W/m 16,7 km/h (3 Bft)
19.04.2015 18:46 15,6 C 14,4 C 51 % 1020,7 hPa 0,0 l/m 2 min 0 min 2,7 UV-I 203 W/m 18,8 km/h (3 Bft)
19.04.2015 18:48 15,6 C 13,9 C 52 % 1020,7 hPa 0,0 l/m 2 min 0 min 2,7 UV-I 197 W/m 20,9 km/h (4 Bft)
19.04.2015 18:50 15,5 C 13,9 C 51 % 1020,7 hPa 0,0 l/m 2 min 0 min 2,7 UV-I 189 W/m 23,0 km/h (4 Bft)
19.04.2015 18:52 15,4 C 13,9 C 52 % 1020,8 hPa 0,0 l/m 2 min 0 min 2,7 UV-I 182 W/m 29,3 km/h (5 Bft)
19.04.2015 18:54 15,4 C 13,9 C 51 % 1020,8 hPa 0,0 l/m 2 min 0 min 2,7 UV-I 175 W/m 25,1 km/h (4 Bft)
19.04.2015 18:56 15,3 C 13,9 C 51 % 1020,8 hPa 0,0 l/m 2 min 0 min 2,7 UV-I 170 W/m 23,0 km/h (4 Bft)
19.04.2015 18:58 15,3 C 13,9 C 52 % 1020,8 hPa 0,0 l/m 2 min 0 min 2,7 UV-I 162 W/m 18,8 km/h (3 Bft)
19.04.2015 19:00 15,3 C 13,9 C 52 % 1020,7 hPa 0,0 l/m 2 min 0 min 2,7 UV-I 152 W/m 23,0 km/h (4 Bft)
19.04.2015 19:02 15,3 C 13,9 C 53 % 1020,7 hPa 0,0 l/m 2 min 0 min 2,7 UV-I 145 W/m 23,0 km/h (4 Bft)
19.04.2015 19:04 15,2 C 13,9 C 53 % 1020,8 hPa 0,0 l/m 2 min 0 min 2,7 UV-I 141 W/m 23,0 km/h (4 Bft)
19.04.2015 19:06 15,2 C 13,9 C 53 % 1020,8 hPa 0,0 l/m 2 min 0 min 2,7 UV-I 137 W/m 20,9 km/h (4 Bft)
19.04.2015 19:08 15,2 C 13,9 C 53 % 1020,8 hPa 0,0 l/m 2 min 0 min 2,7 UV-I 132 W/m 20,9 km/h (4 Bft)
19.04.2015 19:10 15,2 C 13,3 C 53 % 1020,8 hPa 0,0 l/m 2 min 0 min 2,7 UV-I 107 W/m 18,8 km/h (3 Bft)
19.04.2015 19:12 15,1 C 13,3 C 53 % 1020,8 hPa 0,0 l/m 0 min 0 min 2,7 UV-I 73 W/m 14,6 km/h (3 Bft)
19.04.2015 19:14 15,1 C 13,3 C 53 % 1020,8 hPa 0,0 l/m 0 min 0 min 2,7 UV-I 70 W/m 18,8 km/h (3 Bft)
19.04.2015 19:16 15,1 C 13,3 C 53 % 1020,8 hPa 0,0 l/m 0 min 0 min 2,7 UV-I 63 W/m 16,7 km/h (3 Bft)
19.04.2015 19:18 15,0 C 13,3 C 53 % 1020,8 hPa 0,0 l/m 0 min 0 min 2,7 UV-I 58 W/m 18,8 km/h (3 Bft)
19.04.2015 19:20 15,0 C 13,3 C 54 % 1020,9 hPa 0,0 l/m 0 min 0 min 1,9 UV-I 57 W/m 12,6 km/h (3 Bft)
19.04.2015 19:22 14,9 C 13,3 C 54 % 1020,9 hPa 0,0 l/m 0 min 0 min 2,2 UV-I 55 W/m 23,0 km/h (4 Bft)
19.04.2015 19:24 14,9 C 13,3 C 54 % 1021,0 hPa 0,0 l/m 0 min 0 min 0,0 UV-I 53 W/m 23,0 km/h (4 Bft)
19.04.2015 19:26 14,9 C 13,3 C 54 % 1020,9 hPa 0,0 l/m 0 min 0 min 0,0 UV-I 51 W/m 12,6 km/h (3 Bft)
19.04.2015 19:28 14,9 C 13,3 C 55 % 1021,0 hPa 0,0 l/m 0 min 0 min 0,0 UV-I 46 W/m 14,6 km/h (3 Bft)
19.04.2015 19:30 14,8 C 13,3 C 55 % 1021,0 hPa 0,0 l/m 0 min 0 min 0,0 UV-I 44 W/m 10,5 km/h (2 Bft)
19.04.2015 19:32 14,8 C 13,3 C 55 % 1021,1 hPa 0,0 l/m 0 min 0 min 0,0 UV-I 42 W/m 14,6 km/h (3 Bft)
19.04.2015 19:34 14,8 C 12,8 C 55 % 1021,0 hPa 0,0 l/m 0 min 0 min 0,0 UV-I 42 W/m 20,9 km/h (4 Bft)
19.04.2015 19:36 14,7 C 12,8 C 55 % 1021,0 hPa 0,0 l/m 0 min 0 min 0,0 UV-I 41 W/m 14,6 km/h (3 Bft)
19.04.2015 19:38 14,7 C 12,8 C 55 % 1021,1 hPa 0,0 l/m 0 min 0 min 0,0 UV-I 42 W/m 16,7 km/h (3 Bft)
19.04.2015 19:40 14,7 C 12,8 C 56 % 1021,1 hPa 0,0 l/m 0 min 0 min 0,0 UV-I 40 W/m 16,7 km/h (3 Bft)
19.04.2015 19:42 14,6 C 12,8 C 56 % 1021,1 hPa 0,0 l/m 0 min 0 min 0,0 UV-I 40 W/m 16,7 km/h (3 Bft)
19.04.2015 19:44 14,6 C 12,8 C 56 % 1021,1 hPa 0,0 l/m 0 min 0 min 0,0 UV-I 38 W/m 16,7 km/h (3 Bft)
19.04.2015 19:46 14,5 C 12,8 C 56 % 1021,2 hPa 0,0 l/m 0 min 0 min 0,0 UV-I 38 W/m 14,6 km/h (3 Bft)
19.04.2015 19:48 14,4 C 12,8 C 57 % 1021,2 hPa 0,0 l/m 0 min 0 min 0,0 UV-I 38 W/m 14,6 km/h (3 Bft)
19.04.2015 19:50 14,4 C 12,2 C 57 % 1021,1 hPa 0,0 l/m 0 min 0 min 0,0 UV-I 37 W/m 12,6 km/h (3 Bft)
19.04.2015 19:52 14,4 C 12,2 C 57 % 1021,1 hPa 0,0 l/m 0 min 0 min 0,0 UV-I 36 W/m 12,6 km/h (3 Bft)
19.04.2015 19:54 14,3 C 12,2 C 57 % 1021,1 hPa 0,0 l/m 0 min 0 min 0,0 UV-I 33 W/m 8,4 km/h (2 Bft)
19.04.2015 19:56 14,3 C 12,2 C 57 % 1021,1 hPa 0,0 l/m 0 min 0 min 0,0 UV-I 32 W/m 12,6 km/h (3 Bft)
19.04.2015 19:58 14,2 C 12,2 C 57 % 1021,1 hPa 0,0 l/m 0 min 0 min 0,0 UV-I 30 W/m 10,5 km/h (2 Bft)
19.04.2015 20:00 14,2 C 12,2 C 57 % 1021,1 hPa 0,0 l/m 0 min 0 min 0,0 UV-I 28 W/m 16,7 km/h (3 Bft)
19.04.2015 20:02 14,2 C 12,2 C 57 % 1021,1 hPa 0,0 l/m 0 min 0 min 0,0 UV-I 26 W/m 14,6 km/h (3 Bft)
19.04.2015 20:04 14,2 C 12,2 C 57 % 1021,2 hPa 0,0 l/m 0 min 0 min 0,0 UV-I 25 W/m 12,6 km/h (3 Bft)
19.04.2015 20:06 14,2 C 12,2 C 58 % 1021,2 hPa 0,0 l/m 0 min 0 min 0,0 UV-I 25 W/m 14,6 km/h (3 Bft)
19.04.2015 20:08 14,1 C 12,2 C 58 % 1021,2 hPa 0,0 l/m 0 min 0 min 0,0 UV-I 24 W/m 14,6 km/h (3 Bft)
19.04.2015 20:10 14,0 C 12,2 C 58 % 1021,1 hPa 0,0 l/m 0 min 0 min 0,0 UV-I 23 W/m 12,6 km/h (3 Bft)
19.04.2015 20:12 13,9 C 11,7 C 58 % 1021,2 hPa 0,0 l/m 0 min 0 min 0,0 UV-I 21 W/m 14,6 km/h (3 Bft)
19.04.2015 20:14 13,9 C 11,7 C 58 % 1021,2 hPa 0,0 l/m 0 min 0 min 0,0 UV-I 19 W/m 14,6 km/h (3 Bft)
19.04.2015 20:16 13,9 C 11,7 C 58 % 1021,3 hPa 0,0 l/m 2 min 0 min 0,0 UV-I 19 W/m 12,6 km/h (3 Bft)
19.04.2015 20:18 13,8 C 11,7 C 58 % 1021,4 hPa 0,0 l/m 2 min 0 min 0,0 UV-I 18 W/m 8,4 km/h (2 Bft)
19.04.2015 20:20 13,8 C 11,7 C 59 % 1021,3 hPa 0,0 l/m 0 min 0 min 0,0 UV-I 16 W/m 10,5 km/h (2 Bft)
19.04.2015 20:22 13,7 C 11,7 C 59 % 1021,4 hPa 0,0 l/m 0 min 0 min 0,0 UV-I 15 W/m 8,4 km/h (2 Bft)
19.04.2015 20:24 13,7 C 11,1 C 59 % 1021,4 hPa 0,0 l/m 0 min 0 min 0,0 UV-I 14 W/m 10,5 km/h (2 Bft)
19.04.2015 20:26 13,6 C 11,1 C 60 % 1021,4 hPa 0,0 l/m 0 min 0 min 0,0 UV-I 12 W/m 6,3 km/h (2 Bft)
19.04.2015 20:28 13,5 C 11,1 C 60 % 1021,4 hPa 0,0 l/m 0 min 0 min 0,0 UV-I 12 W/m 8,4 km/h (2 Bft)
19.04.2015 20:30 13,4 C 11,1 C 60 % 1021,5 hPa 0,0 l/m 0 min 0 min 0,0 UV-I 11 W/m 8,4 km/h (2 Bft)
19.04.2015 20:32 13,4 C 11,1 C 59 % 1021,4 hPa 0,0 l/m 0 min 0 min 0,0 UV-I 9 W/m 8,4 km/h (2 Bft)
19.04.2015 20:34 13,4 C 11,1 C 60 % 1021,5 hPa 0,0 l/m 0 min 0 min 0,0 UV-I 9 W/m 6,3 km/h (2 Bft)
19.04.2015 20:36 13,3 C 11,1 C 60 % 1021,5 hPa 0,0 l/m 0 min 0 min 0,0 UV-I 7 W/m 6,3 km/h (2 Bft)
19.04.2015 20:38 13,3 C 10,6 C 60 % 1021,5 hPa 0,0 l/m 0 min 0 min 0,0 UV-I 7 W/m 6,3 km/h (2 Bft)
19.04.2015 20:40 13,2 C 10,6 C 60 % 1021,5 hPa 0,0 l/m 0 min 0 min 0,0 UV-I 6 W/m 8,4 km/h (2 Bft)
19.04.2015 20:42 13,2 C 10,6 C 60 % 1021,6 hPa 0,0 l/m 0 min 0 min 0,0 UV-I 5 W/m 6,3 km/h (2 Bft)
19.04.2015 20:44 13,2 C 10,6 C 60 % 1021,6 hPa 0,0 l/m 0 min 0 min 0,0 UV-I 5 W/m 4,2 km/h (1 Bft)
19.04.2015 20:46 13,1 C 10,0 C 61 % 1021,6 hPa 0,0 l/m 0 min 0 min 0,0 UV-I 4 W/m 6,3 km/h (2 Bft)
19.04.2015 20:48 13,1 C 10,0 C 61 % 1021,6 hPa 0,0 l/m 0 min 0 min 0,0 UV-I 0 W/m 6,3 km/h (2 Bft)
19.04.2015 20:50 13,0 C 10,0 C 61 % 1021,7 hPa 0,0 l/m 0 min 0 min 0,0 UV-I 0 W/m 6,3 km/h (2 Bft)
19.04.2015 20:52 12,9 C 10,0 C 61 % 1021,7 hPa 0,0 l/m 0 min 0 min 0,0 UV-I 0 W/m 6,3 km/h (2 Bft)
19.04.2015 20:54 12,9 C 10,0 C 61 % 1021,7 hPa 0,0 l/m 0 min 0 min 0,0 UV-I 0 W/m 6,3 km/h (2 Bft)
19.04.2015 20:56 12,8 C 9,4 C 61 % 1021,8 hPa 0,0 l/m 0 min 0 min 0,0 UV-I 0 W/m 6,3 km/h (2 Bft)
19.04.2015 20:58 12,8 C 9,4 C 62 % 1021,8 hPa 0,0 l/m 0 min 0 min 0,0 UV-I 0 W/m 6,3 km/h (2 Bft)
19.04.2015 21:00 12,7 C 9,4 C 62 % 1021,8 hPa 0,0 l/m 0 min 0 min 0,0 UV-I 0 W/m 6,3 km/h (2 Bft)
19.04.2015 21:02 12,7 C 9,4 C 62 % 1021,9 hPa 0,0 l/m 0 min 0 min 0,0 UV-I 0 W/m 6,3 km/h (2 Bft)
19.04.2015 21:04 12,6 C 9,4 C 62 % 1021,9 hPa 0,0 l/m 0 min 0 min 0,0 UV-I 0 W/m 6,3 km/h (2 Bft)
19.04.2015 21:06 12,6 C 9,4 C 62 % 1021,9 hPa 0,0 l/m 0 min 0 min 0,0 UV-I 0 W/m 6,3 km/h (2 Bft)
19.04.2015 21:08 12,5 C 8,9 C 62 % 1021,9 hPa 0,0 l/m 0 min 0 min 0,0 UV-I 0 W/m 6,3 km/h (2 Bft)
19.04.2015 21:10 12,4 C 8,9 C 62 % 1021,9 hPa 0,0 l/m 0 min 0 min 0,0 UV-I 0 W/m 4,2 km/h (1 Bft)
19.04.2015 21:12 12,4 C 8,9 C 63 % 1021,9 hPa 0,0 l/m 0 min 0 min 0,0 UV-I 0 W/m 4,2 km/h (1 Bft)
19.04.2015 21:14 12,3 C 8,3 C 63 % 1022,0 hPa 0,0 l/m 0 min 0 min 0,0 UV-I 0 W/m 6,3 km/h (2 Bft)
19.04.2015 21:16 12,2 C 8,3 C 63 % 1022,0 hPa 0,0 l/m 0 min 0 min 0,0 UV-I 0 W/m 4,2 km/h (1 Bft)
19.04.2015 21:18 12,2 C 8,3 C 64 % 1022,0 hPa 0,0 l/m 0 min 0 min 0,0 UV-I 0 W/m 4,2 km/h (1 Bft)
19.04.2015 21:20 12,1 C 7,8 C 64 % 1022,0 hPa 0,0 l/m 0 min 0 min 0,0 UV-I 0 W/m 4,2 km/h (1 Bft)
19.04.2015 21:22 12,0 C 7,8 C 64 % 1022,0 hPa 0,0 l/m 0 min 0 min 0,0 UV-I 0 W/m 6,3 km/h (2 Bft)
19.04.2015 21:24 11,9 C 7,8 C 64 % 1022,1 hPa 0,0 l/m 0 min 0 min 0,0 UV-I 0 W/m 4,2 km/h (1 Bft)
19.04.2015 21:26 11,8 C 7,8 C 64 % 1022,1 hPa 0,0 l/m 0 min 0 min 0,0 UV-I 0 W/m 6,3 km/h (2 Bft)
19.04.2015 21:28 11,7 C 7,8 C 64 % 1022,2 hPa 0,0 l/m 0 min 0 min 0,0 UV-I 0 W/m 4,2 km/h (1 Bft)
19.04.2015 21:30 11,7 C 7,8 C 64 % 1022,2 hPa 0,0 l/m 0 min 0 min 0,0 UV-I 0 W/m 4,2 km/h (1 Bft)
19.04.2015 21:32 11,6 C 7,8 C 65 % 1022,1 hPa 0,0 l/m 0 min 0 min 0,0 UV-I 0 W/m 4,2 km/h (1 Bft)
19.04.2015 21:34 11,6 C 7,8 C 65 % 1022,1 hPa 0,0 l/m 0 min 0 min 0,0 UV-I 0 W/m 4,2 km/h (1 Bft)
19.04.2015 21:36 11,5 C 7,2 C 65 % 1022,1 hPa 0,0 l/m 0 min 0 min 0,0 UV-I 0 W/m 4,2 km/h (1 Bft)
19.04.2015 21:38 11,4 C 7,2 C 65 % 1022,1 hPa 0,0 l/m 0 min 0 min 0,0 UV-I 0 W/m 4,2 km/h (1 Bft)
19.04.2015 21:40 11,3 C 7,2 C 65 % 1022,2 hPa 0,0 l/m 0 min 0 min 0,0 UV-I 0 W/m 4,2 km/h (1 Bft)
19.04.2015 21:42 11,3 C 7,2 C 65 % 1022,2 hPa 0,0 l/m 0 min 0 min 0,0 UV-I 0 W/m 4,2 km/h (1 Bft)
19.04.2015 21:44 11,2 C 7,2 C 66 % 1022,2 hPa 0,0 l/m 0 min 0 min 0,0 UV-I 0 W/m 6,3 km/h (2 Bft)
19.04.2015 21:46 11,2 C 7,2 C 66 % 1022,2 hPa 0,0 l/m 0 min 0 min 0,0 UV-I 0 W/m 6,3 km/h (2 Bft)
19.04.2015 21:48 11,1 C 7,2 C 66 % 1022,2 hPa 0,0 l/m 0 min 0 min 0,0 UV-I 0 W/m 4,2 km/h (1 Bft)
19.04.2015 21:50 11,0 C 7,2 C 66 % 1022,3 hPa 0,0 l/m 0 min 0 min 0,0 UV-I 0 W/m 4,2 km/h (1 Bft)
19.04.2015 21:52 10,9 C 6,7 C 67 % 1022,3 hPa 0,0 l/m 0 min 0 min 0,0 UV-I 0 W/m 4,2 km/h (1 Bft)
19.04.2015 21:54 10,8 C 6,7 C 67 % 1022,3 hPa 0,0 l/m 0 min 0 min 0,0 UV-I 0 W/m 4,2 km/h (1 Bft)
19.04.2015 21:56 10,8 C 6,7 C 67 % 1022,3 hPa 0,0 l/m 0 min 0 min 0,0 UV-I 0 W/m 4,2 km/h (1 Bft)
19.04.2015 21:58 10,7 C 6,7 C 67 % 1022,4 hPa 0,0 l/m 0 min 0 min 0,0 UV-I 0 W/m 2,1 km/h (1 Bft)
19.04.2015 22:00 10,7 C 6,7 C 67 % 1022,4 hPa 0,0 l/m 0 min 0 min 0,0 UV-I 0 W/m 4,2 km/h (1 Bft)
19.04.2015 22:02 10,6 C 6,7 C 67 % 1022,4 hPa 0,0 l/m 0 min 0 min 0,0 UV-I 0 W/m 4,2 km/h (1 Bft)
19.04.2015 22:04 10,5 C 6,7 C 68 % 1022,4 hPa 0,0 l/m 0 min 0 min 0,0 UV-I 0 W/m 6,3 km/h (2 Bft)
19.04.2015 22:06 10,4 C 6,7 C 68 % 1022,5 hPa 0,0 l/m 0 min 0 min 0,0 UV-I 0 W/m 6,3 km/h (2 Bft)
19.04.2015 22:08 10,4 C 6,7 C 68 % 1022,6 hPa 0,0 l/m 0 min 0 min 0,0 UV-I 0 W/m 6,3 km/h (2 Bft)
19.04.2015 22:10 10,3 C 6,7 C 68 % 1022,6 hPa 0,0 l/m 0 min 0 min 0,0 UV-I 0 W/m 4,2 km/h (1 Bft)
19.04.2015 22:12 10,2 C 6,1 C 68 % 1022,6 hPa 0,0 l/m 0 min 0 min 0,0 UV-I 0 W/m 4,2 km/h (1 Bft)
19.04.2015 22:14 10,2 C 6,1 C 68 % 1022,6 hPa 0,0 l/m 0 min 0 min 0,0 UV-I 0 W/m 4,2 km/h (1 Bft)
19.04.2015 22:16 10,1 C 6,1 C 68 % 1022,6 hPa 0,0 l/m 0 min 0 min 0,0 UV-I 0 W/m 4,2 km/h (1 Bft)
19.04.2015 22:18 10,1 C 6,1 C 69 % 1022,6 hPa 0,0 l/m 0 min 0 min 0,0 UV-I 0 W/m 4,2 km/h (1 Bft)
19.04.2015 22:20 10,0 C 6,1 C 69 % 1022,7 hPa 0,0 l/m 0 min 0 min 0,0 UV-I 0 W/m 4,2 km/h (1 Bft)
19.04.2015 22:22 9,9 C 6,1 C 69 % 1022,7 hPa 0,0 l/m 0 min 0 min 0,0 UV-I 0 W/m 4,2 km/h (1 Bft)
19.04.2015 22:24 9,9 C 6,1 C 69 % 1022,7 hPa 0,0 l/m 0 min 0 min 0,0 UV-I 0 W/m 4,2 km/h (1 Bft)
19.04.2015 22:26 9,8 C 6,1 C 69 % 1022,6 hPa 0,0 l/m 0 min 0 min 0,0 UV-I 0 W/m 4,2 km/h (1 Bft)
19.04.2015 22:28 9,7 C 6,1 C 69 % 1022,7 hPa 0,0 l/m 0 min 0 min 0,0 UV-I 0 W/m 4,2 km/h (1 Bft)
19.04.2015 22:30 9,7 C 6,1 C 70 % 1022,7 hPa 0,0 l/m 0 min 0 min 0,0 UV-I 0 W/m 4,2 km/h (1 Bft)
19.04.2015 22:32 9,6 C 6,1 C 70 % 1022,7 hPa 0,0 l/m 0 min 0 min 0,0 UV-I 0 W/m 4,2 km/h (1 Bft)
19.04.2015 22:34 9,6 C 5,6 C 70 % 1022,7 hPa 0,0 l/m 0 min 0 min 0,0 UV-I 0 W/m 4,2 km/h (1 Bft)
19.04.2015 22:36 9,5 C 5,6 C 70 % 1022,8 hPa 0,0 l/m 0 min 0 min 0,0 UV-I 0 W/m 2,1 km/h (1 Bft)
19.04.2015 22:38 9,4 C 5,6 C 70 % 1022,8 hPa 0,0 l/m 0 min 0 min 0,0 UV-I 0 W/m 2,1 km/h (1 Bft)
19.04.2015 22:40 9,4 C 5,6 C 70 % 1022,7 hPa 0,0 l/m 0 min 0 min 0,0 UV-I 0 W/m 4,2 km/h (1 Bft)
19.04.2015 22:42 9,3 C 5,6 C 70 % 1022,7 hPa 0,0 l/m 0 min 0 min 0,0 UV-I 0 W/m 6,3 km/h (2 Bft)
19.04.2015 22:44 9,2 C 5,6 C 70 % 1022,7 hPa 0,0 l/m 0 min 0 min 0,0 UV-I 0 W/m 4,2 km/h (1 Bft)
19.04.2015 22:46 9,2 C 5,6 C 70 % 1022,7 hPa 0,0 l/m 0 min 0 min 0,0 UV-I 0 W/m 4,2 km/h (1 Bft)
19.04.2015 22:48 9,1 C 5,6 C 71 % 1022,8 hPa 0,0 l/m 0 min 0 min 0,0 UV-I 0 W/m 4,2 km/h (1 Bft)
19.04.2015 22:50 9,1 C 5,6 C 71 % 1022,9 hPa 0,0 l/m 0 min 0 min 0,0 UV-I 0 W/m 4,2 km/h (1 Bft)
19.04.2015 22:52 9,0 C 5,6 C 71 % 1022,9 hPa 0,0 l/m 0 min 0 min 0,0 UV-I 0 W/m 6,3 km/h (2 Bft)
19.04.2015 22:54 8,9 C 5,6 C 71 % 1022,9 hPa 0,0 l/m 0 min 0 min 0,0 UV-I 0 W/m 6,3 km/h (2 Bft)
19.04.2015 22:56 8,9 C 5,6 C 71 % 1022,9 hPa 0,0 l/m 0 min 0 min 0,0 UV-I 0 W/m 6,3 km/h (2 Bft)
19.04.2015 22:58 8,8 C 5,6 C 71 % 1022,9 hPa 0,0 l/m 0 min 0 min 0,0 UV-I 0 W/m 4,2 km/h (1 Bft)
19.04.2015 23:00 8,8 C 5,6 C 71 % 1022,9 hPa 0,0 l/m 0 min 0 min 0,0 UV-I 0 W/m 6,3 km/h (2 Bft)
19.04.2015 23:02 8,7 C 5,6 C 72 % 1023,0 hPa 0,0 l/m 0 min 0 min 0,0 UV-I 0 W/m 6,3 km/h (2 Bft)
19.04.2015 23:04 8,7 C 5,6 C 72 % 1023,0 hPa 0,0 l/m 0 min 0 min 0,0 UV-I 0 W/m 6,3 km/h (2 Bft)
19.04.2015 23:06 8,6 C 5,6 C 72 % 1023,0 hPa 0,0 l/m 0 min 0 min 0,0 UV-I 0 W/m 8,4 km/h (2 Bft)
19.04.2015 23:08 8,6 C 5,6 C 72 % 1023,0 hPa 0,0 l/m 0 min 0 min 0,0 UV-I 0 W/m 6,3 km/h (2 Bft)
19.04.2015 23:10 8,5 C 5,6 C 73 % 1023,1 hPa 0,0 l/m 0 min 0 min 0,0 UV-I 0 W/m 6,3 km/h (2 Bft)
19.04.2015 23:12 8,4 C 5,6 C 73 % 1023,0 hPa 0,0 l/m 0 min 0 min 0,0 UV-I 0 W/m 6,3 km/h (2 Bft)
19.04.2015 23:14 8,4 C 5,6 C 73 % 1023,0 hPa 0,0 l/m 0 min 0 min 0,0 UV-I 0 W/m 6,3 km/h (2 Bft)
19.04.2015 23:16 8,3 C 5,6 C 73 % 1022,9 hPa 0,0 l/m 0 min 0 min 0,0 UV-I 0 W/m 4,2 km/h (1 Bft)
19.04.2015 23:18 8,3 C 5,0 C 73 % 1023,0 hPa 0,0 l/m 0 min 0 min 0,0 UV-I 0 W/m 4,2 km/h (1 Bft)
19.04.2015 23:20 8,3 C 5,0 C 73 % 1023,0 hPa 0,0 l/m 0 min 0 min 0,0 UV-I 0 W/m 4,2 km/h (1 Bft)
19.04.2015 23:22 8,3 C 5,0 C 73 % 1022,9 hPa 0,0 l/m 0 min 0 min 0,0 UV-I 0 W/m 4,2 km/h (1 Bft)
19.04.2015 23:24 8,2 C 5,0 C 74 % 1022,9 hPa 0,0 l/m 0 min 0 min 0,0 UV-I 0 W/m 6,3 km/h (2 Bft)
19.04.2015 23:26 8,2 C 5,0 C 74 % 1023,0 hPa 0,0 l/m 0 min 0 min 0,0 UV-I 0 W/m 6,3 km/h (2 Bft)
19.04.2015 23:28 8,2 C 5,0 C 74 % 1023,0 hPa 0,0 l/m 0 min 0 min 0,0 UV-I 0 W/m 6,3 km/h (2 Bft)
19.04.2015 23:30 8,2 C 5,0 C 74 % 1023,0 hPa 0,0 l/m 0 min 0 min 0,0 UV-I 0 W/m 4,2 km/h (1 Bft)
19.04.2015 23:32 8,1 C 5,0 C 74 % 1023,1 hPa 0,0 l/m 0 min 0 min 0,0 UV-I 0 W/m 6,3 km/h (2 Bft)
19.04.2015 23:34 8,1 C 5,0 C 74 % 1023,2 hPa 0,0 l/m 0 min 0 min 0,0 UV-I 0 W/m 6,3 km/h (2 Bft)
19.04.2015 23:36 8,1 C 5,0 C 74 % 1023,2 hPa 0,0 l/m 0 min 0 min 0,0 UV-I 0 W/m 4,2 km/h (1 Bft)
19.04.2015 23:38 8,1 C 5,0 C 74 % 1023,1 hPa 0,0 l/m 0 min 0 min 0,0 UV-I 0 W/m 4,2 km/h (1 Bft)
19.04.2015 23:40 8,0 C 5,0 C 74 % 1023,1 hPa 0,0 l/m 0 min 0 min 0,0 UV-I 0 W/m 4,2 km/h (1 Bft)
19.04.2015 23:42 8,0 C 5,0 C 74 % 1023,2 hPa 0,0 l/m 0 min 0 min 0,0 UV-I 0 W/m 4,2 km/h (1 Bft)
19.04.2015 23:44 8,0 C 5,0 C 75 % 1023,1 hPa 0,0 l/m 0 min 0 min 0,0 UV-I 0 W/m 4,2 km/h (1 Bft)
19.04.2015 23:46 7,9 C 5,0 C 75 % 1023,2 hPa 0,0 l/m 0 min 0 min 0,0 UV-I 0 W/m 4,2 km/h (1 Bft)
19.04.2015 23:48 7,9 C 5,0 C 74 % 1023,2 hPa 0,0 l/m 0 min 0 min 0,0 UV-I 0 W/m 6,3 km/h (2 Bft)
19.04.2015 23:50 7,9 C 5,0 C 75 % 1023,2 hPa 0,0 l/m 0 min 0 min 0,0 UV-I 0 W/m 4,2 km/h (1 Bft)
19.04.2015 23:52 7,9 C 5,0 C 75 % 1023,3 hPa 0,0 l/m 0 min 0 min 0,0 UV-I 0 W/m 4,2 km/h (1 Bft)
19.04.2015 23:54 7,9 C 5,0 C 75 % 1023,3 hPa 0,0 l/m 0 min 0 min 0,0 UV-I 0 W/m 6,3 km/h (2 Bft)
19.04.2015 23:56 7,9 C 5,0 C 75 % 1023,3 hPa 0,0 l/m 0 min 0 min 0,0 UV-I 0 W/m 4,2 km/h (1 Bft)
19.04.2015 23:58 7,8 C 5,0 C 75 % 1023,3 hPa 0,0 l/m 0 min 0 min 0,0 UV-I 0 W/m 6,3 km/h (2 Bft)
_ Min-Zeit 06:34 06:02 16:02 16:26 - - - - - 01:30
Minimum _ 2,8 C 1,1 C 45 % 1020,3 hPa - - - - - 2,1 km/h (1 Bft)
_ Max-Zeit 16:36 15:54 08:24 00:00 00:00 06:52 00:00 10:58 13:18 18:52
Maximum _ 16,2 C 21,7 C 94 % 1024,4 hPa 0,0 l/m 2 min 0 min 2,7 UV-I 844 W/m 29,3 km/h
NO (5 Bft)
Durchschnitt _ 9,6 C 8,8 C 71 % 1022,0 hPa #0,0 l/m #12:12 h #0 min. 2,7 UV-I 366 W/m 9,4 km/h (2 Bft)
© 2015 W. Hausmann